﻿<?xml version="1.0" encoding="UTF-8" standalone="no" ?>
<gpx xmlns="http://www.topografix.com/GPX/1/1" creator="CompeGPS" version="1.1" xmlns:xsi="http://www.w3.org/2001/XMLSchema-instance" xsi:schemaLocation="http://www.topografix.com/GPX/1/1 http://www.topografix.com/GPX/1/1/gpx.xsd http://www.garmin.com/xmlschemas/GpxExtensions/v3 http://www.garmin.com/xmlschemas/GpxExtensionsv3.xsd http://www.garmin.com/xmlschemas/TrackPointExtension/v1 http://www.garmin.com/xmlschemas/TrackPointExtensionv1.xsd" xmlns:gpxtpx="http://www.garmin.com/xmlschemas/TrackPointExtension/v1">
  <metadata>
    <link href="http://www.compegps.com">
      <text>CompeGPS TEAM, SL</text>
    </link>
    <time>2015-04-21T18:27:45Z</time>
    <bounds maxlat="42.903600" maxlon="0.134102" minlat="42.867365" minlon="0.102792"/>
  </metadata>
  <trk>
    <name>pic_de_tracens</name>
    <trkseg>
      <trkpt lat="42.903578" lon="0.102860">
        <ele>1458.1</ele>
        <time>2015-04-21T06:44:33Z</time>
      </trkpt>
      <trkpt lat="42.903525" lon="0.102909">
        <ele>1458.4</ele>
        <time>2015-04-21T06:47:34Z</time>
      </trkpt>
      <trkpt lat="42.903459" lon="0.103014">
        <ele>1458.9</ele>
        <time>2015-04-21T06:47:47Z</time>
      </trkpt>
      <trkpt lat="42.903388" lon="0.103122">
        <ele>1459.8</ele>
        <time>2015-04-21T06:47:58Z</time>
      </trkpt>
      <trkpt lat="42.903346" lon="0.103233">
        <ele>1460.2</ele>
        <time>2015-04-21T06:48:06Z</time>
      </trkpt>
      <trkpt lat="42.903286" lon="0.103328">
        <ele>1461.1</ele>
        <time>2015-04-21T06:48:16Z</time>
      </trkpt>
      <trkpt lat="42.903224" lon="0.103366">
        <ele>1462.1</ele>
        <time>2015-04-21T06:48:28Z</time>
      </trkpt>
      <trkpt lat="42.903150" lon="0.103384">
        <ele>1462.8</ele>
        <time>2015-04-21T06:48:39Z</time>
      </trkpt>
      <trkpt lat="42.903048" lon="0.103433">
        <ele>1463.6</ele>
        <time>2015-04-21T06:48:52Z</time>
      </trkpt>
      <trkpt lat="42.902997" lon="0.103460">
        <ele>1465.4</ele>
        <time>2015-04-21T06:53:54Z</time>
      </trkpt>
      <trkpt lat="42.902914" lon="0.103468">
        <ele>1465.7</ele>
        <time>2015-04-21T06:54:08Z</time>
      </trkpt>
      <trkpt lat="42.902819" lon="0.103526">
        <ele>1466.3</ele>
        <time>2015-04-21T06:54:19Z</time>
      </trkpt>
      <trkpt lat="42.902730" lon="0.103567">
        <ele>1467.1</ele>
        <time>2015-04-21T06:54:29Z</time>
      </trkpt>
      <trkpt lat="42.902641" lon="0.103608">
        <ele>1467.8</ele>
        <time>2015-04-21T06:54:39Z</time>
      </trkpt>
      <trkpt lat="42.902546" lon="0.103643">
        <ele>1468.4</ele>
        <time>2015-04-21T06:54:50Z</time>
      </trkpt>
      <trkpt lat="42.902452" lon="0.103645">
        <ele>1468.5</ele>
        <time>2015-04-21T06:54:58Z</time>
      </trkpt>
      <trkpt lat="42.902352" lon="0.103648">
        <ele>1468.5</ele>
        <time>2015-04-21T06:55:07Z</time>
      </trkpt>
      <trkpt lat="42.902262" lon="0.103669">
        <ele>1469.1</ele>
        <time>2015-04-21T06:55:15Z</time>
      </trkpt>
      <trkpt lat="42.902172" lon="0.103699">
        <ele>1469.8</ele>
        <time>2015-04-21T06:55:24Z</time>
      </trkpt>
      <trkpt lat="42.902080" lon="0.103731">
        <ele>1470.5</ele>
        <time>2015-04-21T06:55:34Z</time>
      </trkpt>
      <trkpt lat="42.901997" lon="0.103757">
        <ele>1471.4</ele>
        <time>2015-04-21T06:55:44Z</time>
      </trkpt>
      <trkpt lat="42.901896" lon="0.103791">
        <ele>1472.7</ele>
        <time>2015-04-21T06:55:55Z</time>
      </trkpt>
      <trkpt lat="42.901803" lon="0.103827">
        <ele>1473.4</ele>
        <time>2015-04-21T06:56:05Z</time>
      </trkpt>
      <trkpt lat="42.901708" lon="0.103851">
        <ele>1474.2</ele>
        <time>2015-04-21T06:56:16Z</time>
      </trkpt>
      <trkpt lat="42.901620" lon="0.103883">
        <ele>1474.9</ele>
        <time>2015-04-21T06:56:26Z</time>
      </trkpt>
      <trkpt lat="42.901536" lon="0.103908">
        <ele>1475.8</ele>
        <time>2015-04-21T06:56:36Z</time>
      </trkpt>
      <trkpt lat="42.901438" lon="0.103933">
        <ele>1476.8</ele>
        <time>2015-04-21T06:56:46Z</time>
      </trkpt>
      <trkpt lat="42.901347" lon="0.103972">
        <ele>1477.6</ele>
        <time>2015-04-21T06:56:55Z</time>
      </trkpt>
      <trkpt lat="42.901265" lon="0.103966">
        <ele>1478.7</ele>
        <time>2015-04-21T06:57:08Z</time>
      </trkpt>
      <trkpt lat="42.901171" lon="0.103996">
        <ele>1479.4</ele>
        <time>2015-04-21T06:57:19Z</time>
      </trkpt>
      <trkpt lat="42.901075" lon="0.104011">
        <ele>1479.7</ele>
        <time>2015-04-21T06:57:29Z</time>
      </trkpt>
      <trkpt lat="42.900977" lon="0.104029">
        <ele>1480.6</ele>
        <time>2015-04-21T06:57:40Z</time>
      </trkpt>
      <trkpt lat="42.900879" lon="0.104060">
        <ele>1481.2</ele>
        <time>2015-04-21T06:57:51Z</time>
      </trkpt>
      <trkpt lat="42.900787" lon="0.104057">
        <ele>1482.2</ele>
        <time>2015-04-21T06:58:03Z</time>
      </trkpt>
      <trkpt lat="42.900686" lon="0.104080">
        <ele>1482.9</ele>
        <time>2015-04-21T06:58:14Z</time>
      </trkpt>
      <trkpt lat="42.900588" lon="0.104106">
        <ele>1483.9</ele>
        <time>2015-04-21T06:58:25Z</time>
      </trkpt>
      <trkpt lat="42.900494" lon="0.104122">
        <ele>1484.9</ele>
        <time>2015-04-21T06:58:36Z</time>
      </trkpt>
      <trkpt lat="42.900390" lon="0.104151">
        <ele>1486.4</ele>
        <time>2015-04-21T06:58:47Z</time>
      </trkpt>
      <trkpt lat="42.900297" lon="0.104176">
        <ele>1488.1</ele>
        <time>2015-04-21T06:58:58Z</time>
      </trkpt>
      <trkpt lat="42.900188" lon="0.104205">
        <ele>1489.3</ele>
        <time>2015-04-21T06:59:09Z</time>
      </trkpt>
      <trkpt lat="42.900087" lon="0.104217">
        <ele>1490.3</ele>
        <time>2015-04-21T06:59:19Z</time>
      </trkpt>
      <trkpt lat="42.899971" lon="0.104245">
        <ele>1490.8</ele>
        <time>2015-04-21T06:59:30Z</time>
      </trkpt>
      <trkpt lat="42.899873" lon="0.104257">
        <ele>1491.2</ele>
        <time>2015-04-21T06:59:39Z</time>
      </trkpt>
      <trkpt lat="42.899772" lon="0.104277">
        <ele>1491.3</ele>
        <time>2015-04-21T06:59:49Z</time>
      </trkpt>
      <trkpt lat="42.899691" lon="0.104312">
        <ele>1491.8</ele>
        <time>2015-04-21T06:59:58Z</time>
      </trkpt>
      <trkpt lat="42.899596" lon="0.104335">
        <ele>1491.9</ele>
        <time>2015-04-21T07:00:07Z</time>
      </trkpt>
      <trkpt lat="42.899497" lon="0.104358">
        <ele>1492.3</ele>
        <time>2015-04-21T07:00:16Z</time>
      </trkpt>
      <trkpt lat="42.899407" lon="0.104376">
        <ele>1492.7</ele>
        <time>2015-04-21T07:00:25Z</time>
      </trkpt>
      <trkpt lat="42.899316" lon="0.104393">
        <ele>1493.4</ele>
        <time>2015-04-21T07:00:34Z</time>
      </trkpt>
      <trkpt lat="42.899215" lon="0.104412">
        <ele>1493.9</ele>
        <time>2015-04-21T07:00:44Z</time>
      </trkpt>
      <trkpt lat="42.899108" lon="0.104460">
        <ele>1494.2</ele>
        <time>2015-04-21T07:00:55Z</time>
      </trkpt>
      <trkpt lat="42.899014" lon="0.104487">
        <ele>1495.1</ele>
        <time>2015-04-21T07:01:06Z</time>
      </trkpt>
      <trkpt lat="42.898900" lon="0.104508">
        <ele>1496.5</ele>
        <time>2015-04-21T07:01:19Z</time>
      </trkpt>
      <trkpt lat="42.898810" lon="0.104547">
        <ele>1498.2</ele>
        <time>2015-04-21T07:01:31Z</time>
      </trkpt>
      <trkpt lat="42.898708" lon="0.104597">
        <ele>1499.9</ele>
        <time>2015-04-21T07:01:44Z</time>
      </trkpt>
      <trkpt lat="42.898599" lon="0.104642">
        <ele>1502.0</ele>
        <time>2015-04-21T07:01:57Z</time>
      </trkpt>
      <trkpt lat="42.898515" lon="0.104685">
        <ele>1503.7</ele>
        <time>2015-04-21T07:02:10Z</time>
      </trkpt>
      <trkpt lat="42.898409" lon="0.104704">
        <ele>1505.5</ele>
        <time>2015-04-21T07:02:23Z</time>
      </trkpt>
      <trkpt lat="42.898314" lon="0.104755">
        <ele>1506.3</ele>
        <time>2015-04-21T07:02:34Z</time>
      </trkpt>
      <trkpt lat="42.898222" lon="0.104814">
        <ele>1507.4</ele>
        <time>2015-04-21T07:02:45Z</time>
      </trkpt>
      <trkpt lat="42.898132" lon="0.104819">
        <ele>1508.5</ele>
        <time>2015-04-21T07:02:58Z</time>
      </trkpt>
      <trkpt lat="42.898032" lon="0.104868">
        <ele>1509.6</ele>
        <time>2015-04-21T07:03:09Z</time>
      </trkpt>
      <trkpt lat="42.897933" lon="0.104898">
        <ele>1510.7</ele>
        <time>2015-04-21T07:03:21Z</time>
      </trkpt>
      <trkpt lat="42.897840" lon="0.104927">
        <ele>1511.8</ele>
        <time>2015-04-21T07:03:33Z</time>
      </trkpt>
      <trkpt lat="42.897736" lon="0.104951">
        <ele>1512.7</ele>
        <time>2015-04-21T07:03:45Z</time>
      </trkpt>
      <trkpt lat="42.897639" lon="0.104950">
        <ele>1514.0</ele>
        <time>2015-04-21T07:03:57Z</time>
      </trkpt>
      <trkpt lat="42.897563" lon="0.104964">
        <ele>1514.7</ele>
        <time>2015-04-21T07:04:06Z</time>
      </trkpt>
      <trkpt lat="42.897470" lon="0.104958">
        <ele>1515.5</ele>
        <time>2015-04-21T07:04:19Z</time>
      </trkpt>
      <trkpt lat="42.897378" lon="0.104998">
        <ele>1516.9</ele>
        <time>2015-04-21T07:04:32Z</time>
      </trkpt>
      <trkpt lat="42.897286" lon="0.105043">
        <ele>1517.5</ele>
        <time>2015-04-21T07:04:44Z</time>
      </trkpt>
      <trkpt lat="42.897200" lon="0.105045">
        <ele>1518.7</ele>
        <time>2015-04-21T07:04:55Z</time>
      </trkpt>
      <trkpt lat="42.897094" lon="0.105039">
        <ele>1520.0</ele>
        <time>2015-04-21T07:05:08Z</time>
      </trkpt>
      <trkpt lat="42.896993" lon="0.105051">
        <ele>1521.2</ele>
        <time>2015-04-21T07:05:20Z</time>
      </trkpt>
      <trkpt lat="42.896898" lon="0.105050">
        <ele>1522.9</ele>
        <time>2015-04-21T07:05:33Z</time>
      </trkpt>
      <trkpt lat="42.896807" lon="0.105059">
        <ele>1524.1</ele>
        <time>2015-04-21T07:05:44Z</time>
      </trkpt>
      <trkpt lat="42.896725" lon="0.105059">
        <ele>1524.8</ele>
        <time>2015-04-21T07:05:55Z</time>
      </trkpt>
      <trkpt lat="42.896622" lon="0.105053">
        <ele>1526.2</ele>
        <time>2015-04-21T07:06:09Z</time>
      </trkpt>
      <trkpt lat="42.896526" lon="0.104990">
        <ele>1528.4</ele>
        <time>2015-04-21T07:06:26Z</time>
      </trkpt>
      <trkpt lat="42.896436" lon="0.104946">
        <ele>1530.2</ele>
        <time>2015-04-21T07:06:40Z</time>
      </trkpt>
      <trkpt lat="42.896350" lon="0.104889">
        <ele>1531.0</ele>
        <time>2015-04-21T07:06:52Z</time>
      </trkpt>
      <trkpt lat="42.896260" lon="0.104841">
        <ele>1531.9</ele>
        <time>2015-04-21T07:07:02Z</time>
      </trkpt>
      <trkpt lat="42.896177" lon="0.104826">
        <ele>1532.6</ele>
        <time>2015-04-21T07:07:11Z</time>
      </trkpt>
      <trkpt lat="42.896087" lon="0.104788">
        <ele>1533.3</ele>
        <time>2015-04-21T07:07:20Z</time>
      </trkpt>
      <trkpt lat="42.896011" lon="0.104756">
        <ele>1533.6</ele>
        <time>2015-04-21T07:07:29Z</time>
      </trkpt>
      <trkpt lat="42.895915" lon="0.104764">
        <ele>1534.9</ele>
        <time>2015-04-21T07:07:40Z</time>
      </trkpt>
      <trkpt lat="42.895828" lon="0.104755">
        <ele>1535.9</ele>
        <time>2015-04-21T07:07:51Z</time>
      </trkpt>
      <trkpt lat="42.895738" lon="0.104701">
        <ele>1536.4</ele>
        <time>2015-04-21T07:08:01Z</time>
      </trkpt>
      <trkpt lat="42.895657" lon="0.104650">
        <ele>1537.6</ele>
        <time>2015-04-21T07:08:10Z</time>
      </trkpt>
      <trkpt lat="42.895568" lon="0.104668">
        <ele>1538.3</ele>
        <time>2015-04-21T07:08:22Z</time>
      </trkpt>
      <trkpt lat="42.895495" lon="0.104758">
        <ele>1539.0</ele>
        <time>2015-04-21T07:08:33Z</time>
      </trkpt>
      <trkpt lat="42.895457" lon="0.104863">
        <ele>1539.6</ele>
        <time>2015-04-21T07:08:44Z</time>
      </trkpt>
      <trkpt lat="42.895416" lon="0.104995">
        <ele>1540.1</ele>
        <time>2015-04-21T07:08:56Z</time>
      </trkpt>
      <trkpt lat="42.895384" lon="0.105127">
        <ele>1540.5</ele>
        <time>2015-04-21T07:09:07Z</time>
      </trkpt>
      <trkpt lat="42.895330" lon="0.105194">
        <ele>1541.1</ele>
        <time>2015-04-21T07:09:21Z</time>
      </trkpt>
      <trkpt lat="42.895246" lon="0.105227">
        <ele>1541.7</ele>
        <time>2015-04-21T07:09:40Z</time>
      </trkpt>
      <trkpt lat="42.895175" lon="0.105321">
        <ele>1543.5</ele>
        <time>2015-04-21T07:09:54Z</time>
      </trkpt>
      <trkpt lat="42.895092" lon="0.105395">
        <ele>1544.9</ele>
        <time>2015-04-21T07:10:09Z</time>
      </trkpt>
      <trkpt lat="42.895005" lon="0.105485">
        <ele>1547.1</ele>
        <time>2015-04-21T07:10:23Z</time>
      </trkpt>
      <trkpt lat="42.894917" lon="0.105554">
        <ele>1548.8</ele>
        <time>2015-04-21T07:10:37Z</time>
      </trkpt>
      <trkpt lat="42.894825" lon="0.105592">
        <ele>1551.5</ele>
        <time>2015-04-21T07:10:55Z</time>
      </trkpt>
      <trkpt lat="42.894772" lon="0.105698">
        <ele>1552.8</ele>
        <time>2015-04-21T07:11:05Z</time>
      </trkpt>
      <trkpt lat="42.894704" lon="0.105773">
        <ele>1553.1</ele>
        <time>2015-04-21T07:11:16Z</time>
      </trkpt>
      <trkpt lat="42.894640" lon="0.105859">
        <ele>1555.3</ele>
        <time>2015-04-21T07:11:35Z</time>
      </trkpt>
      <trkpt lat="42.894574" lon="0.105958">
        <ele>1556.9</ele>
        <time>2015-04-21T07:11:49Z</time>
      </trkpt>
      <trkpt lat="42.894491" lon="0.106045">
        <ele>1559.2</ele>
        <time>2015-04-21T07:12:05Z</time>
      </trkpt>
      <trkpt lat="42.894401" lon="0.106134">
        <ele>1562.2</ele>
        <time>2015-04-21T07:12:21Z</time>
      </trkpt>
      <trkpt lat="42.894299" lon="0.106165">
        <ele>1563.7</ele>
        <time>2015-04-21T07:12:34Z</time>
      </trkpt>
      <trkpt lat="42.894212" lon="0.106204">
        <ele>1566.1</ele>
        <time>2015-04-21T07:12:50Z</time>
      </trkpt>
      <trkpt lat="42.894118" lon="0.106224">
        <ele>1568.0</ele>
        <time>2015-04-21T07:13:03Z</time>
      </trkpt>
      <trkpt lat="42.894023" lon="0.106230">
        <ele>1569.7</ele>
        <time>2015-04-21T07:13:18Z</time>
      </trkpt>
      <trkpt lat="42.893932" lon="0.106279">
        <ele>1571.6</ele>
        <time>2015-04-21T07:13:30Z</time>
      </trkpt>
      <trkpt lat="42.893840" lon="0.106311">
        <ele>1574.1</ele>
        <time>2015-04-21T07:13:48Z</time>
      </trkpt>
      <trkpt lat="42.893748" lon="0.106320">
        <ele>1575.7</ele>
        <time>2015-04-21T07:14:04Z</time>
      </trkpt>
      <trkpt lat="42.893663" lon="0.106322">
        <ele>1577.9</ele>
        <time>2015-04-21T07:14:22Z</time>
      </trkpt>
      <trkpt lat="42.893565" lon="0.106339">
        <ele>1579.8</ele>
        <time>2015-04-21T07:14:36Z</time>
      </trkpt>
      <trkpt lat="42.893482" lon="0.106356">
        <ele>1581.1</ele>
        <time>2015-04-21T07:14:49Z</time>
      </trkpt>
      <trkpt lat="42.893388" lon="0.106343">
        <ele>1582.6</ele>
        <time>2015-04-21T07:15:02Z</time>
      </trkpt>
      <trkpt lat="42.893302" lon="0.106358">
        <ele>1584.8</ele>
        <time>2015-04-21T07:15:16Z</time>
      </trkpt>
      <trkpt lat="42.893221" lon="0.106405">
        <ele>1586.8</ele>
        <time>2015-04-21T07:15:28Z</time>
      </trkpt>
      <trkpt lat="42.893138" lon="0.106389">
        <ele>1588.6</ele>
        <time>2015-04-21T07:15:43Z</time>
      </trkpt>
      <trkpt lat="42.893048" lon="0.106373">
        <ele>1590.3</ele>
        <time>2015-04-21T07:15:58Z</time>
      </trkpt>
      <trkpt lat="42.892956" lon="0.106375">
        <ele>1592.5</ele>
        <time>2015-04-21T07:16:13Z</time>
      </trkpt>
      <trkpt lat="42.892864" lon="0.106376">
        <ele>1594.2</ele>
        <time>2015-04-21T07:16:27Z</time>
      </trkpt>
      <trkpt lat="42.892779" lon="0.106335">
        <ele>1595.8</ele>
        <time>2015-04-21T07:16:39Z</time>
      </trkpt>
      <trkpt lat="42.892694" lon="0.106321">
        <ele>1597.3</ele>
        <time>2015-04-21T07:16:53Z</time>
      </trkpt>
      <trkpt lat="42.892611" lon="0.106338">
        <ele>1599.1</ele>
        <time>2015-04-21T07:17:08Z</time>
      </trkpt>
      <trkpt lat="42.892525" lon="0.106353">
        <ele>1600.7</ele>
        <time>2015-04-21T07:17:21Z</time>
      </trkpt>
      <trkpt lat="42.892450" lon="0.106325">
        <ele>1601.8</ele>
        <time>2015-04-21T07:17:35Z</time>
      </trkpt>
      <trkpt lat="42.892344" lon="0.106355">
        <ele>1603.4</ele>
        <time>2015-04-21T07:17:51Z</time>
      </trkpt>
      <trkpt lat="42.892249" lon="0.106367">
        <ele>1604.3</ele>
        <time>2015-04-21T07:18:02Z</time>
      </trkpt>
      <trkpt lat="42.892174" lon="0.106332">
        <ele>1605.6</ele>
        <time>2015-04-21T07:18:15Z</time>
      </trkpt>
      <trkpt lat="42.892088" lon="0.106368">
        <ele>1607.7</ele>
        <time>2015-04-21T07:18:30Z</time>
      </trkpt>
      <trkpt lat="42.891993" lon="0.106392">
        <ele>1609.5</ele>
        <time>2015-04-21T07:18:44Z</time>
      </trkpt>
      <trkpt lat="42.891902" lon="0.106417">
        <ele>1612.0</ele>
        <time>2015-04-21T07:18:59Z</time>
      </trkpt>
      <trkpt lat="42.891808" lon="0.106418">
        <ele>1613.8</ele>
        <time>2015-04-21T07:19:11Z</time>
      </trkpt>
      <trkpt lat="42.891744" lon="0.106424">
        <ele>1614.7</ele>
        <time>2015-04-21T07:19:21Z</time>
      </trkpt>
      <trkpt lat="42.891656" lon="0.106451">
        <ele>1615.2</ele>
        <time>2015-04-21T07:19:32Z</time>
      </trkpt>
      <trkpt lat="42.891580" lon="0.106454">
        <ele>1616.5</ele>
        <time>2015-04-21T07:19:44Z</time>
      </trkpt>
      <trkpt lat="42.891496" lon="0.106460">
        <ele>1618.0</ele>
        <time>2015-04-21T07:19:58Z</time>
      </trkpt>
      <trkpt lat="42.891406" lon="0.106465">
        <ele>1619.2</ele>
        <time>2015-04-21T07:20:11Z</time>
      </trkpt>
      <trkpt lat="42.891315" lon="0.106477">
        <ele>1619.9</ele>
        <time>2015-04-21T07:20:23Z</time>
      </trkpt>
      <trkpt lat="42.891233" lon="0.106528">
        <ele>1619.9</ele>
        <time>2015-04-21T07:20:33Z</time>
      </trkpt>
      <trkpt lat="42.891157" lon="0.106553">
        <ele>1620.3</ele>
        <time>2015-04-21T07:20:43Z</time>
      </trkpt>
      <trkpt lat="42.891082" lon="0.106590">
        <ele>1621.0</ele>
        <time>2015-04-21T07:20:56Z</time>
      </trkpt>
      <trkpt lat="42.890998" lon="0.106638">
        <ele>1621.7</ele>
        <time>2015-04-21T07:21:07Z</time>
      </trkpt>
      <trkpt lat="42.890909" lon="0.106690">
        <ele>1622.6</ele>
        <time>2015-04-21T07:21:17Z</time>
      </trkpt>
      <trkpt lat="42.890825" lon="0.106739">
        <ele>1623.3</ele>
        <time>2015-04-21T07:21:26Z</time>
      </trkpt>
      <trkpt lat="42.890737" lon="0.106759">
        <ele>1624.0</ele>
        <time>2015-04-21T07:21:37Z</time>
      </trkpt>
      <trkpt lat="42.890660" lon="0.106790">
        <ele>1624.3</ele>
        <time>2015-04-21T07:21:45Z</time>
      </trkpt>
      <trkpt lat="42.890584" lon="0.106782">
        <ele>1626.0</ele>
        <time>2015-04-21T07:21:59Z</time>
      </trkpt>
      <trkpt lat="42.890498" lon="0.106789">
        <ele>1627.6</ele>
        <time>2015-04-21T07:22:10Z</time>
      </trkpt>
      <trkpt lat="42.890424" lon="0.106758">
        <ele>1628.7</ele>
        <time>2015-04-21T07:22:21Z</time>
      </trkpt>
      <trkpt lat="42.890359" lon="0.106743">
        <ele>1630.2</ele>
        <time>2015-04-21T07:22:31Z</time>
      </trkpt>
      <trkpt lat="42.890279" lon="0.106767">
        <ele>1631.3</ele>
        <time>2015-04-21T07:22:41Z</time>
      </trkpt>
      <trkpt lat="42.890204" lon="0.106728">
        <ele>1632.5</ele>
        <time>2015-04-21T07:22:54Z</time>
      </trkpt>
      <trkpt lat="42.890104" lon="0.106682">
        <ele>1633.1</ele>
        <time>2015-04-21T07:23:05Z</time>
      </trkpt>
      <trkpt lat="42.890028" lon="0.106604">
        <ele>1633.7</ele>
        <time>2015-04-21T07:23:17Z</time>
      </trkpt>
      <trkpt lat="42.889947" lon="0.106554">
        <ele>1634.3</ele>
        <time>2015-04-21T07:23:29Z</time>
      </trkpt>
      <trkpt lat="42.889864" lon="0.106524">
        <ele>1635.1</ele>
        <time>2015-04-21T07:23:40Z</time>
      </trkpt>
      <trkpt lat="42.889768" lon="0.106528">
        <ele>1636.3</ele>
        <time>2015-04-21T07:23:54Z</time>
      </trkpt>
      <trkpt lat="42.889687" lon="0.106549">
        <ele>1637.5</ele>
        <time>2015-04-21T07:24:07Z</time>
      </trkpt>
      <trkpt lat="42.889621" lon="0.106616">
        <ele>1639.3</ele>
        <time>2015-04-21T07:24:21Z</time>
      </trkpt>
      <trkpt lat="42.889531" lon="0.106674">
        <ele>1641.6</ele>
        <time>2015-04-21T07:24:37Z</time>
      </trkpt>
      <trkpt lat="42.889440" lon="0.106716">
        <ele>1642.6</ele>
        <time>2015-04-21T07:24:48Z</time>
      </trkpt>
      <trkpt lat="42.889362" lon="0.106797">
        <ele>1644.1</ele>
        <time>2015-04-21T07:24:59Z</time>
      </trkpt>
      <trkpt lat="42.889278" lon="0.106815">
        <ele>1644.7</ele>
        <time>2015-04-21T07:25:08Z</time>
      </trkpt>
      <trkpt lat="42.889201" lon="0.106840">
        <ele>1645.3</ele>
        <time>2015-04-21T07:25:17Z</time>
      </trkpt>
      <trkpt lat="42.889115" lon="0.106905">
        <ele>1645.8</ele>
        <time>2015-04-21T07:25:28Z</time>
      </trkpt>
      <trkpt lat="42.889037" lon="0.106930">
        <ele>1645.7</ele>
        <time>2015-04-21T07:25:37Z</time>
      </trkpt>
      <trkpt lat="42.888940" lon="0.106925">
        <ele>1645.5</ele>
        <time>2015-04-21T07:25:45Z</time>
      </trkpt>
      <trkpt lat="42.888856" lon="0.106907">
        <ele>1645.7</ele>
        <time>2015-04-21T07:25:54Z</time>
      </trkpt>
      <trkpt lat="42.888763" lon="0.106880">
        <ele>1645.8</ele>
        <time>2015-04-21T07:26:03Z</time>
      </trkpt>
      <trkpt lat="42.888683" lon="0.106865">
        <ele>1646.0</ele>
        <time>2015-04-21T07:26:11Z</time>
      </trkpt>
      <trkpt lat="42.888605" lon="0.106856">
        <ele>1646.2</ele>
        <time>2015-04-21T07:26:20Z</time>
      </trkpt>
      <trkpt lat="42.888520" lon="0.106828">
        <ele>1646.6</ele>
        <time>2015-04-21T07:26:30Z</time>
      </trkpt>
      <trkpt lat="42.888458" lon="0.106771">
        <ele>1647.5</ele>
        <time>2015-04-21T07:26:39Z</time>
      </trkpt>
      <trkpt lat="42.888378" lon="0.106772">
        <ele>1649.1</ele>
        <time>2015-04-21T07:26:49Z</time>
      </trkpt>
      <trkpt lat="42.888309" lon="0.106842">
        <ele>1649.8</ele>
        <time>2015-04-21T07:26:59Z</time>
      </trkpt>
      <trkpt lat="42.888281" lon="0.106977">
        <ele>1651.1</ele>
        <time>2015-04-21T07:27:13Z</time>
      </trkpt>
      <trkpt lat="42.888236" lon="0.107084">
        <ele>1652.7</ele>
        <time>2015-04-21T07:27:24Z</time>
      </trkpt>
      <trkpt lat="42.888161" lon="0.107147">
        <ele>1653.2</ele>
        <time>2015-04-21T07:27:33Z</time>
      </trkpt>
      <trkpt lat="42.888075" lon="0.107172">
        <ele>1653.4</ele>
        <time>2015-04-21T07:27:42Z</time>
      </trkpt>
      <trkpt lat="42.887987" lon="0.107229">
        <ele>1653.3</ele>
        <time>2015-04-21T07:27:51Z</time>
      </trkpt>
      <trkpt lat="42.887910" lon="0.107292">
        <ele>1654.2</ele>
        <time>2015-04-21T07:28:03Z</time>
      </trkpt>
      <trkpt lat="42.887828" lon="0.107349">
        <ele>1655.5</ele>
        <time>2015-04-21T07:28:14Z</time>
      </trkpt>
      <trkpt lat="42.887748" lon="0.107344">
        <ele>1658.0</ele>
        <time>2015-04-21T07:28:32Z</time>
      </trkpt>
      <trkpt lat="42.887653" lon="0.107373">
        <ele>1659.7</ele>
        <time>2015-04-21T07:28:46Z</time>
      </trkpt>
      <trkpt lat="42.887564" lon="0.107406">
        <ele>1661.9</ele>
        <time>2015-04-21T07:29:00Z</time>
      </trkpt>
      <trkpt lat="42.887487" lon="0.107421">
        <ele>1664.0</ele>
        <time>2015-04-21T07:29:13Z</time>
      </trkpt>
      <trkpt lat="42.887400" lon="0.107468">
        <ele>1665.5</ele>
        <time>2015-04-21T07:29:25Z</time>
      </trkpt>
      <trkpt lat="42.887321" lon="0.107476">
        <ele>1666.9</ele>
        <time>2015-04-21T07:29:37Z</time>
      </trkpt>
      <trkpt lat="42.887238" lon="0.107517">
        <ele>1668.5</ele>
        <time>2015-04-21T07:29:50Z</time>
      </trkpt>
      <trkpt lat="42.887168" lon="0.107536">
        <ele>1670.9</ele>
        <time>2015-04-21T07:30:05Z</time>
      </trkpt>
      <trkpt lat="42.887113" lon="0.107543">
        <ele>1673.8</ele>
        <time>2015-04-21T07:30:24Z</time>
      </trkpt>
      <trkpt lat="42.887026" lon="0.107575">
        <ele>1676.4</ele>
        <time>2015-04-21T07:30:41Z</time>
      </trkpt>
      <trkpt lat="42.886948" lon="0.107592">
        <ele>1678.6</ele>
        <time>2015-04-21T07:30:58Z</time>
      </trkpt>
      <trkpt lat="42.886868" lon="0.107610">
        <ele>1680.6</ele>
        <time>2015-04-21T07:31:12Z</time>
      </trkpt>
      <trkpt lat="42.886790" lon="0.107630">
        <ele>1682.5</ele>
        <time>2015-04-21T07:31:26Z</time>
      </trkpt>
      <trkpt lat="42.886730" lon="0.107616">
        <ele>1684.7</ele>
        <time>2015-04-21T07:31:42Z</time>
      </trkpt>
      <trkpt lat="42.886646" lon="0.107645">
        <ele>1687.3</ele>
        <time>2015-04-21T07:32:08Z</time>
      </trkpt>
      <trkpt lat="42.886545" lon="0.107692">
        <ele>1688.9</ele>
        <time>2015-04-21T07:32:22Z</time>
      </trkpt>
      <trkpt lat="42.886430" lon="0.107776">
        <ele>1690.2</ele>
        <time>2015-04-21T07:32:37Z</time>
      </trkpt>
      <trkpt lat="42.886335" lon="0.107816">
        <ele>1691.8</ele>
        <time>2015-04-21T07:32:50Z</time>
      </trkpt>
      <trkpt lat="42.886260" lon="0.107835">
        <ele>1693.4</ele>
        <time>2015-04-21T07:33:03Z</time>
      </trkpt>
      <trkpt lat="42.886189" lon="0.107850">
        <ele>1695.4</ele>
        <time>2015-04-21T07:33:17Z</time>
      </trkpt>
      <trkpt lat="42.886105" lon="0.107899">
        <ele>1698.4</ele>
        <time>2015-04-21T07:33:36Z</time>
      </trkpt>
      <trkpt lat="42.886024" lon="0.107937">
        <ele>1701.3</ele>
        <time>2015-04-21T07:33:52Z</time>
      </trkpt>
      <trkpt lat="42.885961" lon="0.107979">
        <ele>1703.8</ele>
        <time>2015-04-21T07:34:12Z</time>
      </trkpt>
      <trkpt lat="42.885883" lon="0.107990">
        <ele>1705.9</ele>
        <time>2015-04-21T07:34:27Z</time>
      </trkpt>
      <trkpt lat="42.885788" lon="0.108088">
        <ele>1710.3</ele>
        <time>2015-04-21T07:39:22Z</time>
      </trkpt>
      <trkpt lat="42.885762" lon="0.108138">
        <ele>1710.9</ele>
        <time>2015-04-21T07:40:20Z</time>
      </trkpt>
      <trkpt lat="42.885736" lon="0.108176">
        <ele>1711.1</ele>
        <time>2015-04-21T07:41:14Z</time>
      </trkpt>
      <trkpt lat="42.885639" lon="0.108288">
        <ele>1711.9</ele>
        <time>2015-04-21T07:41:28Z</time>
      </trkpt>
      <trkpt lat="42.885548" lon="0.108418">
        <ele>1713.1</ele>
        <time>2015-04-21T07:41:39Z</time>
      </trkpt>
      <trkpt lat="42.885492" lon="0.108505">
        <ele>1714.4</ele>
        <time>2015-04-21T07:41:50Z</time>
      </trkpt>
      <trkpt lat="42.885456" lon="0.108642">
        <ele>1715.4</ele>
        <time>2015-04-21T07:42:00Z</time>
      </trkpt>
      <trkpt lat="42.885443" lon="0.108735">
        <ele>1716.2</ele>
        <time>2015-04-21T07:42:12Z</time>
      </trkpt>
      <trkpt lat="42.885378" lon="0.108889">
        <ele>1717.3</ele>
        <time>2015-04-21T07:42:24Z</time>
      </trkpt>
      <trkpt lat="42.885318" lon="0.109017">
        <ele>1718.2</ele>
        <time>2015-04-21T07:42:36Z</time>
      </trkpt>
      <trkpt lat="42.885266" lon="0.109152">
        <ele>1719.1</ele>
        <time>2015-04-21T07:42:48Z</time>
      </trkpt>
      <trkpt lat="42.885229" lon="0.109259">
        <ele>1720.2</ele>
        <time>2015-04-21T07:42:59Z</time>
      </trkpt>
      <trkpt lat="42.885186" lon="0.109377">
        <ele>1721.2</ele>
        <time>2015-04-21T07:43:10Z</time>
      </trkpt>
      <trkpt lat="42.885127" lon="0.109506">
        <ele>1722.0</ele>
        <time>2015-04-21T07:43:24Z</time>
      </trkpt>
      <trkpt lat="42.885048" lon="0.109614">
        <ele>1723.0</ele>
        <time>2015-04-21T07:43:38Z</time>
      </trkpt>
      <trkpt lat="42.884955" lon="0.109711">
        <ele>1723.9</ele>
        <time>2015-04-21T07:43:49Z</time>
      </trkpt>
      <trkpt lat="42.884879" lon="0.109804">
        <ele>1725.1</ele>
        <time>2015-04-21T07:44:01Z</time>
      </trkpt>
      <trkpt lat="42.884820" lon="0.109888">
        <ele>1726.3</ele>
        <time>2015-04-21T07:44:16Z</time>
      </trkpt>
      <trkpt lat="42.884724" lon="0.109999">
        <ele>1728.1</ele>
        <time>2015-04-21T07:44:32Z</time>
      </trkpt>
      <trkpt lat="42.884630" lon="0.110116">
        <ele>1729.3</ele>
        <time>2015-04-21T07:44:47Z</time>
      </trkpt>
      <trkpt lat="42.884569" lon="0.110247">
        <ele>1730.5</ele>
        <time>2015-04-21T07:44:58Z</time>
      </trkpt>
      <trkpt lat="42.884497" lon="0.110366">
        <ele>1731.2</ele>
        <time>2015-04-21T07:45:07Z</time>
      </trkpt>
      <trkpt lat="42.884435" lon="0.110455">
        <ele>1731.7</ele>
        <time>2015-04-21T07:45:19Z</time>
      </trkpt>
      <trkpt lat="42.884374" lon="0.110558">
        <ele>1732.1</ele>
        <time>2015-04-21T07:45:30Z</time>
      </trkpt>
      <trkpt lat="42.884359" lon="0.110659">
        <ele>1732.3</ele>
        <time>2015-04-21T07:45:42Z</time>
      </trkpt>
      <trkpt lat="42.884318" lon="0.110778">
        <ele>1732.6</ele>
        <time>2015-04-21T07:45:54Z</time>
      </trkpt>
      <trkpt lat="42.884255" lon="0.110880">
        <ele>1733.4</ele>
        <time>2015-04-21T07:46:06Z</time>
      </trkpt>
      <trkpt lat="42.884168" lon="0.110991">
        <ele>1734.0</ele>
        <time>2015-04-21T07:46:19Z</time>
      </trkpt>
      <trkpt lat="42.884101" lon="0.111094">
        <ele>1734.7</ele>
        <time>2015-04-21T07:46:32Z</time>
      </trkpt>
      <trkpt lat="42.884036" lon="0.111196">
        <ele>1736.3</ele>
        <time>2015-04-21T07:46:50Z</time>
      </trkpt>
      <trkpt lat="42.883975" lon="0.111335">
        <ele>1737.0</ele>
        <time>2015-04-21T07:47:06Z</time>
      </trkpt>
      <trkpt lat="42.883871" lon="0.111459">
        <ele>1737.5</ele>
        <time>2015-04-21T07:47:22Z</time>
      </trkpt>
      <trkpt lat="42.883827" lon="0.111602">
        <ele>1738.1</ele>
        <time>2015-04-21T07:47:36Z</time>
      </trkpt>
      <trkpt lat="42.883711" lon="0.111658">
        <ele>1738.1</ele>
        <time>2015-04-21T07:47:53Z</time>
      </trkpt>
      <trkpt lat="42.883604" lon="0.111706">
        <ele>1738.9</ele>
        <time>2015-04-21T07:48:05Z</time>
      </trkpt>
      <trkpt lat="42.883512" lon="0.111770">
        <ele>1741.3</ele>
        <time>2015-04-21T07:48:24Z</time>
      </trkpt>
      <trkpt lat="42.883381" lon="0.111868">
        <ele>1742.6</ele>
        <time>2015-04-21T07:48:38Z</time>
      </trkpt>
      <trkpt lat="42.883289" lon="0.111896">
        <ele>1744.4</ele>
        <time>2015-04-21T07:48:52Z</time>
      </trkpt>
      <trkpt lat="42.883200" lon="0.111935">
        <ele>1745.8</ele>
        <time>2015-04-21T07:49:08Z</time>
      </trkpt>
      <trkpt lat="42.883098" lon="0.112011">
        <ele>1746.6</ele>
        <time>2015-04-21T07:49:22Z</time>
      </trkpt>
      <trkpt lat="42.882978" lon="0.112106">
        <ele>1747.4</ele>
        <time>2015-04-21T07:49:33Z</time>
      </trkpt>
      <trkpt lat="42.882886" lon="0.112159">
        <ele>1748.4</ele>
        <time>2015-04-21T07:49:46Z</time>
      </trkpt>
      <trkpt lat="42.882811" lon="0.112226">
        <ele>1750.0</ele>
        <time>2015-04-21T07:50:00Z</time>
      </trkpt>
      <trkpt lat="42.882717" lon="0.112220">
        <ele>1752.3</ele>
        <time>2015-04-21T07:50:15Z</time>
      </trkpt>
      <trkpt lat="42.882615" lon="0.112211">
        <ele>1754.2</ele>
        <time>2015-04-21T07:50:31Z</time>
      </trkpt>
      <trkpt lat="42.882511" lon="0.112211">
        <ele>1756.0</ele>
        <time>2015-04-21T07:50:45Z</time>
      </trkpt>
      <trkpt lat="42.882410" lon="0.112241">
        <ele>1757.7</ele>
        <time>2015-04-21T07:50:59Z</time>
      </trkpt>
      <trkpt lat="42.882313" lon="0.112255">
        <ele>1759.4</ele>
        <time>2015-04-21T07:51:12Z</time>
      </trkpt>
      <trkpt lat="42.882169" lon="0.112182">
        <ele>1763.7</ele>
        <time>2015-04-21T07:51:41Z</time>
      </trkpt>
      <trkpt lat="42.882092" lon="0.112161">
        <ele>1765.6</ele>
        <time>2015-04-21T07:51:56Z</time>
      </trkpt>
      <trkpt lat="42.881992" lon="0.112176">
        <ele>1768.3</ele>
        <time>2015-04-21T07:52:14Z</time>
      </trkpt>
      <trkpt lat="42.881864" lon="0.112069">
        <ele>1771.8</ele>
        <time>2015-04-21T07:52:49Z</time>
      </trkpt>
      <trkpt lat="42.881805" lon="0.111949">
        <ele>1772.9</ele>
        <time>2015-04-21T07:53:04Z</time>
      </trkpt>
      <trkpt lat="42.881733" lon="0.111876">
        <ele>1776.1</ele>
        <time>2015-04-21T07:53:22Z</time>
      </trkpt>
      <trkpt lat="42.881675" lon="0.111869">
        <ele>1779.2</ele>
        <time>2015-04-21T07:53:40Z</time>
      </trkpt>
      <trkpt lat="42.881601" lon="0.111844">
        <ele>1783.3</ele>
        <time>2015-04-21T07:54:03Z</time>
      </trkpt>
      <trkpt lat="42.881527" lon="0.111895">
        <ele>1787.6</ele>
        <time>2015-04-21T07:54:27Z</time>
      </trkpt>
      <trkpt lat="42.881432" lon="0.111941">
        <ele>1791.6</ele>
        <time>2015-04-21T07:54:52Z</time>
      </trkpt>
      <trkpt lat="42.881357" lon="0.111903">
        <ele>1793.9</ele>
        <time>2015-04-21T07:55:09Z</time>
      </trkpt>
      <trkpt lat="42.881261" lon="0.111878">
        <ele>1797.1</ele>
        <time>2015-04-21T07:55:30Z</time>
      </trkpt>
      <trkpt lat="42.881177" lon="0.111877">
        <ele>1800.2</ele>
        <time>2015-04-21T07:55:49Z</time>
      </trkpt>
      <trkpt lat="42.881151" lon="0.111947">
        <ele>1804.4</ele>
        <time>2015-04-21T07:56:12Z</time>
      </trkpt>
      <trkpt lat="42.881083" lon="0.112006">
        <ele>1807.4</ele>
        <time>2015-04-21T07:56:32Z</time>
      </trkpt>
      <trkpt lat="42.880984" lon="0.111931">
        <ele>1813.4</ele>
        <time>2015-04-21T07:57:13Z</time>
      </trkpt>
      <trkpt lat="42.880897" lon="0.111883">
        <ele>1816.0</ele>
        <time>2015-04-21T07:57:29Z</time>
      </trkpt>
      <trkpt lat="42.880799" lon="0.111843">
        <ele>1818.6</ele>
        <time>2015-04-21T07:57:48Z</time>
      </trkpt>
      <trkpt lat="42.880747" lon="0.111857">
        <ele>1820.2</ele>
        <time>2015-04-21T07:58:06Z</time>
      </trkpt>
      <trkpt lat="42.880656" lon="0.111734">
        <ele>1826.2</ele>
        <time>2015-04-21T07:58:44Z</time>
      </trkpt>
      <trkpt lat="42.880605" lon="0.111654">
        <ele>1829.1</ele>
        <time>2015-04-21T07:59:01Z</time>
      </trkpt>
      <trkpt lat="42.880560" lon="0.111639">
        <ele>1832.3</ele>
        <time>2015-04-21T07:59:21Z</time>
      </trkpt>
      <trkpt lat="42.880512" lon="0.111567">
        <ele>1837.1</ele>
        <time>2015-04-21T07:59:49Z</time>
      </trkpt>
      <trkpt lat="42.880456" lon="0.111546">
        <ele>1841.8</ele>
        <time>2015-04-21T08:00:20Z</time>
      </trkpt>
      <trkpt lat="42.880393" lon="0.111578">
        <ele>1844.9</ele>
        <time>2015-04-21T08:00:39Z</time>
      </trkpt>
      <trkpt lat="42.880316" lon="0.111480">
        <ele>1850.3</ele>
        <time>2015-04-21T08:01:22Z</time>
      </trkpt>
      <trkpt lat="42.880290" lon="0.111375">
        <ele>1853.0</ele>
        <time>2015-04-21T08:01:45Z</time>
      </trkpt>
      <trkpt lat="42.880238" lon="0.111368">
        <ele>1858.4</ele>
        <time>2015-04-21T08:02:20Z</time>
      </trkpt>
      <trkpt lat="42.880087" lon="0.111347">
        <ele>1869.3</ele>
        <time>2015-04-21T08:03:40Z</time>
      </trkpt>
      <trkpt lat="42.880027" lon="0.111326">
        <ele>1873.0</ele>
        <time>2015-04-21T08:04:11Z</time>
      </trkpt>
      <trkpt lat="42.879962" lon="0.111420">
        <ele>1876.8</ele>
        <time>2015-04-21T08:04:36Z</time>
      </trkpt>
      <trkpt lat="42.879892" lon="0.111447">
        <ele>1880.0</ele>
        <time>2015-04-21T08:04:57Z</time>
      </trkpt>
      <trkpt lat="42.879824" lon="0.111472">
        <ele>1884.9</ele>
        <time>2015-04-21T08:05:33Z</time>
      </trkpt>
      <trkpt lat="42.879723" lon="0.111506">
        <ele>1888.5</ele>
        <time>2015-04-21T08:06:03Z</time>
      </trkpt>
      <trkpt lat="42.879621" lon="0.111517">
        <ele>1891.6</ele>
        <time>2015-04-21T08:06:29Z</time>
      </trkpt>
      <trkpt lat="42.879540" lon="0.111520">
        <ele>1893.6</ele>
        <time>2015-04-21T08:06:49Z</time>
      </trkpt>
      <trkpt lat="42.879455" lon="0.111592">
        <ele>1895.4</ele>
        <time>2015-04-21T08:07:13Z</time>
      </trkpt>
      <trkpt lat="42.879344" lon="0.111538">
        <ele>1896.9</ele>
        <time>2015-04-21T08:07:30Z</time>
      </trkpt>
      <trkpt lat="42.879312" lon="0.111429">
        <ele>1898.1</ele>
        <time>2015-04-21T08:07:54Z</time>
      </trkpt>
      <trkpt lat="42.879255" lon="0.111359">
        <ele>1901.4</ele>
        <time>2015-04-21T08:08:26Z</time>
      </trkpt>
      <trkpt lat="42.879195" lon="0.111400">
        <ele>1905.1</ele>
        <time>2015-04-21T08:08:57Z</time>
      </trkpt>
      <trkpt lat="42.879080" lon="0.111345">
        <ele>1907.7</ele>
        <time>2015-04-21T08:09:18Z</time>
      </trkpt>
      <trkpt lat="42.878991" lon="0.111235">
        <ele>1913.9</ele>
        <time>2015-04-21T08:10:06Z</time>
      </trkpt>
      <trkpt lat="42.878922" lon="0.111278">
        <ele>1917.1</ele>
        <time>2015-04-21T08:10:31Z</time>
      </trkpt>
      <trkpt lat="42.878873" lon="0.111258">
        <ele>1921.3</ele>
        <time>2015-04-21T08:11:00Z</time>
      </trkpt>
      <trkpt lat="42.878826" lon="0.111173">
        <ele>1925.2</ele>
        <time>2015-04-21T08:11:21Z</time>
      </trkpt>
      <trkpt lat="42.878777" lon="0.111088">
        <ele>1930.8</ele>
        <time>2015-04-21T08:11:48Z</time>
      </trkpt>
      <trkpt lat="42.878704" lon="0.111129">
        <ele>1934.6</ele>
        <time>2015-04-21T08:12:10Z</time>
      </trkpt>
      <trkpt lat="42.878641" lon="0.111132">
        <ele>1938.6</ele>
        <time>2015-04-21T08:12:43Z</time>
      </trkpt>
      <trkpt lat="42.878585" lon="0.111134">
        <ele>1942.0</ele>
        <time>2015-04-21T08:13:08Z</time>
      </trkpt>
      <trkpt lat="42.878536" lon="0.111119">
        <ele>1945.6</ele>
        <time>2015-04-21T08:13:31Z</time>
      </trkpt>
      <trkpt lat="42.878517" lon="0.111015">
        <ele>1949.3</ele>
        <time>2015-04-21T08:13:58Z</time>
      </trkpt>
      <trkpt lat="42.878444" lon="0.111026">
        <ele>1953.6</ele>
        <time>2015-04-21T08:14:23Z</time>
      </trkpt>
      <trkpt lat="42.878363" lon="0.111066">
        <ele>1959.1</ele>
        <time>2015-04-21T08:14:57Z</time>
      </trkpt>
      <trkpt lat="42.878288" lon="0.111076">
        <ele>1963.1</ele>
        <time>2015-04-21T08:15:23Z</time>
      </trkpt>
      <trkpt lat="42.878217" lon="0.111083">
        <ele>1965.5</ele>
        <time>2015-04-21T08:15:43Z</time>
      </trkpt>
      <trkpt lat="42.878141" lon="0.111103">
        <ele>1969.2</ele>
        <time>2015-04-21T08:16:10Z</time>
      </trkpt>
      <trkpt lat="42.878074" lon="0.111119">
        <ele>1973.8</ele>
        <time>2015-04-21T08:16:38Z</time>
      </trkpt>
      <trkpt lat="42.877987" lon="0.111136">
        <ele>1976.8</ele>
        <time>2015-04-21T08:17:03Z</time>
      </trkpt>
      <trkpt lat="42.877916" lon="0.111173">
        <ele>1981.4</ele>
        <time>2015-04-21T08:17:33Z</time>
      </trkpt>
      <trkpt lat="42.877854" lon="0.111256">
        <ele>1986.2</ele>
        <time>2015-04-21T08:18:10Z</time>
      </trkpt>
      <trkpt lat="42.877784" lon="0.111321">
        <ele>1990.7</ele>
        <time>2015-04-21T08:18:39Z</time>
      </trkpt>
      <trkpt lat="42.877711" lon="0.111367">
        <ele>1994.7</ele>
        <time>2015-04-21T08:19:09Z</time>
      </trkpt>
      <trkpt lat="42.877635" lon="0.111403">
        <ele>1998.9</ele>
        <time>2015-04-21T08:19:41Z</time>
      </trkpt>
      <trkpt lat="42.877602" lon="0.111416">
        <ele>2000.6</ele>
        <time>2015-04-21T08:20:32Z</time>
      </trkpt>
      <trkpt lat="42.877513" lon="0.111467">
        <ele>2008.0</ele>
        <time>2015-04-21T08:21:25Z</time>
      </trkpt>
      <trkpt lat="42.877510" lon="0.111532">
        <ele>2011.4</ele>
        <time>2015-04-21T08:22:19Z</time>
      </trkpt>
      <trkpt lat="42.877501" lon="0.111656">
        <ele>2012.6</ele>
        <time>2015-04-21T08:22:37Z</time>
      </trkpt>
      <trkpt lat="42.877464" lon="0.111765">
        <ele>2015.6</ele>
        <time>2015-04-21T08:22:58Z</time>
      </trkpt>
      <trkpt lat="42.877402" lon="0.111860">
        <ele>2018.8</ele>
        <time>2015-04-21T08:23:20Z</time>
      </trkpt>
      <trkpt lat="42.877328" lon="0.111928">
        <ele>2021.5</ele>
        <time>2015-04-21T08:23:40Z</time>
      </trkpt>
      <trkpt lat="42.877277" lon="0.112035">
        <ele>2023.4</ele>
        <time>2015-04-21T08:23:58Z</time>
      </trkpt>
      <trkpt lat="42.877220" lon="0.112125">
        <ele>2025.2</ele>
        <time>2015-04-21T08:24:19Z</time>
      </trkpt>
      <trkpt lat="42.877162" lon="0.112214">
        <ele>2027.6</ele>
        <time>2015-04-21T08:24:40Z</time>
      </trkpt>
      <trkpt lat="42.877110" lon="0.112303">
        <ele>2029.9</ele>
        <time>2015-04-21T08:25:01Z</time>
      </trkpt>
      <trkpt lat="42.877054" lon="0.112409">
        <ele>2032.7</ele>
        <time>2015-04-21T08:25:23Z</time>
      </trkpt>
      <trkpt lat="42.877020" lon="0.112417">
        <ele>2033.9</ele>
        <time>2015-04-21T08:34:34Z</time>
      </trkpt>
      <trkpt lat="42.876975" lon="0.112388">
        <ele>2033.6</ele>
        <time>2015-04-21T08:36:47Z</time>
      </trkpt>
      <trkpt lat="42.876882" lon="0.112321">
        <ele>2034.4</ele>
        <time>2015-04-21T08:37:03Z</time>
      </trkpt>
      <trkpt lat="42.876782" lon="0.112273">
        <ele>2036.3</ele>
        <time>2015-04-21T08:37:18Z</time>
      </trkpt>
      <trkpt lat="42.876686" lon="0.112240">
        <ele>2037.8</ele>
        <time>2015-04-21T08:37:35Z</time>
      </trkpt>
      <trkpt lat="42.876583" lon="0.112176">
        <ele>2038.9</ele>
        <time>2015-04-21T08:37:53Z</time>
      </trkpt>
      <trkpt lat="42.876491" lon="0.112121">
        <ele>2039.1</ele>
        <time>2015-04-21T08:38:04Z</time>
      </trkpt>
      <trkpt lat="42.876403" lon="0.112153">
        <ele>2038.7</ele>
        <time>2015-04-21T08:38:18Z</time>
      </trkpt>
      <trkpt lat="42.876345" lon="0.112219">
        <ele>2038.9</ele>
        <time>2015-04-21T08:38:38Z</time>
      </trkpt>
      <trkpt lat="42.876306" lon="0.112285">
        <ele>2038.9</ele>
        <time>2015-04-21T08:39:02Z</time>
      </trkpt>
      <trkpt lat="42.876232" lon="0.112338">
        <ele>2040.7</ele>
        <time>2015-04-21T08:39:34Z</time>
      </trkpt>
      <trkpt lat="42.876166" lon="0.112432">
        <ele>2041.4</ele>
        <time>2015-04-21T08:39:56Z</time>
      </trkpt>
      <trkpt lat="42.876099" lon="0.112498">
        <ele>2041.8</ele>
        <time>2015-04-21T08:40:19Z</time>
      </trkpt>
      <trkpt lat="42.876037" lon="0.112581">
        <ele>2042.4</ele>
        <time>2015-04-21T08:40:44Z</time>
      </trkpt>
      <trkpt lat="42.875972" lon="0.112638">
        <ele>2043.1</ele>
        <time>2015-04-21T08:41:08Z</time>
      </trkpt>
      <trkpt lat="42.875894" lon="0.112694">
        <ele>2043.6</ele>
        <time>2015-04-21T08:41:27Z</time>
      </trkpt>
      <trkpt lat="42.875818" lon="0.112755">
        <ele>2044.4</ele>
        <time>2015-04-21T08:41:55Z</time>
      </trkpt>
      <trkpt lat="42.875740" lon="0.112793">
        <ele>2045.8</ele>
        <time>2015-04-21T08:42:22Z</time>
      </trkpt>
      <trkpt lat="42.875667" lon="0.112844">
        <ele>2047.1</ele>
        <time>2015-04-21T08:42:56Z</time>
      </trkpt>
      <trkpt lat="42.875591" lon="0.112890">
        <ele>2048.0</ele>
        <time>2015-04-21T08:43:21Z</time>
      </trkpt>
      <trkpt lat="42.875540" lon="0.112958">
        <ele>2049.8</ele>
        <time>2015-04-21T08:44:04Z</time>
      </trkpt>
      <trkpt lat="42.875475" lon="0.113050">
        <ele>2051.0</ele>
        <time>2015-04-21T08:44:41Z</time>
      </trkpt>
      <trkpt lat="42.875406" lon="0.113135">
        <ele>2051.5</ele>
        <time>2015-04-21T08:45:03Z</time>
      </trkpt>
      <trkpt lat="42.875337" lon="0.113181">
        <ele>2051.9</ele>
        <time>2015-04-21T08:45:21Z</time>
      </trkpt>
      <trkpt lat="42.875254" lon="0.113257">
        <ele>2052.6</ele>
        <time>2015-04-21T08:45:41Z</time>
      </trkpt>
      <trkpt lat="42.875186" lon="0.113327">
        <ele>2053.5</ele>
        <time>2015-04-21T08:45:56Z</time>
      </trkpt>
      <trkpt lat="42.875102" lon="0.113377">
        <ele>2054.6</ele>
        <time>2015-04-21T08:46:09Z</time>
      </trkpt>
      <trkpt lat="42.875044" lon="0.113409">
        <ele>2055.3</ele>
        <time>2015-04-21T08:46:21Z</time>
      </trkpt>
      <trkpt lat="42.874986" lon="0.113472">
        <ele>2055.7</ele>
        <time>2015-04-21T08:46:36Z</time>
      </trkpt>
      <trkpt lat="42.874933" lon="0.113567">
        <ele>2056.4</ele>
        <time>2015-04-21T08:46:54Z</time>
      </trkpt>
      <trkpt lat="42.874916" lon="0.113595">
        <ele>2057.0</ele>
        <time>2015-04-21T08:49:18Z</time>
      </trkpt>
      <trkpt lat="42.874868" lon="0.113634">
        <ele>2057.2</ele>
        <time>2015-04-21T08:51:09Z</time>
      </trkpt>
      <trkpt lat="42.874781" lon="0.113710">
        <ele>2058.1</ele>
        <time>2015-04-21T08:51:26Z</time>
      </trkpt>
      <trkpt lat="42.874694" lon="0.113779">
        <ele>2059.1</ele>
        <time>2015-04-21T08:51:47Z</time>
      </trkpt>
      <trkpt lat="42.874618" lon="0.113849">
        <ele>2060.4</ele>
        <time>2015-04-21T08:52:05Z</time>
      </trkpt>
      <trkpt lat="42.874531" lon="0.113927">
        <ele>2060.8</ele>
        <time>2015-04-21T08:52:25Z</time>
      </trkpt>
      <trkpt lat="42.874458" lon="0.114006">
        <ele>2061.0</ele>
        <time>2015-04-21T08:52:42Z</time>
      </trkpt>
      <trkpt lat="42.874394" lon="0.114087">
        <ele>2061.9</ele>
        <time>2015-04-21T08:53:02Z</time>
      </trkpt>
      <trkpt lat="42.874328" lon="0.114167">
        <ele>2061.8</ele>
        <time>2015-04-21T08:53:15Z</time>
      </trkpt>
      <trkpt lat="42.874252" lon="0.114212">
        <ele>2061.3</ele>
        <time>2015-04-21T08:53:40Z</time>
      </trkpt>
      <trkpt lat="42.874178" lon="0.114273">
        <ele>2061.2</ele>
        <time>2015-04-21T08:53:55Z</time>
      </trkpt>
      <trkpt lat="42.874097" lon="0.114353">
        <ele>2061.5</ele>
        <time>2015-04-21T08:54:12Z</time>
      </trkpt>
      <trkpt lat="42.874016" lon="0.114426">
        <ele>2061.4</ele>
        <time>2015-04-21T08:54:24Z</time>
      </trkpt>
      <trkpt lat="42.873958" lon="0.114516">
        <ele>2061.4</ele>
        <time>2015-04-21T08:54:40Z</time>
      </trkpt>
      <trkpt lat="42.873887" lon="0.114594">
        <ele>2062.2</ele>
        <time>2015-04-21T08:54:55Z</time>
      </trkpt>
      <trkpt lat="42.873801" lon="0.114655">
        <ele>2062.5</ele>
        <time>2015-04-21T08:55:10Z</time>
      </trkpt>
      <trkpt lat="42.873711" lon="0.114690">
        <ele>2062.5</ele>
        <time>2015-04-21T08:55:23Z</time>
      </trkpt>
      <trkpt lat="42.873635" lon="0.114728">
        <ele>2062.7</ele>
        <time>2015-04-21T08:55:39Z</time>
      </trkpt>
      <trkpt lat="42.873536" lon="0.114730">
        <ele>2063.0</ele>
        <time>2015-04-21T08:55:55Z</time>
      </trkpt>
      <trkpt lat="42.873438" lon="0.114731">
        <ele>2063.2</ele>
        <time>2015-04-21T08:56:09Z</time>
      </trkpt>
      <trkpt lat="42.873354" lon="0.114766">
        <ele>2063.9</ele>
        <time>2015-04-21T08:56:25Z</time>
      </trkpt>
      <trkpt lat="42.873278" lon="0.114827">
        <ele>2064.4</ele>
        <time>2015-04-21T08:56:40Z</time>
      </trkpt>
      <trkpt lat="42.873185" lon="0.114881">
        <ele>2065.5</ele>
        <time>2015-04-21T08:56:59Z</time>
      </trkpt>
      <trkpt lat="42.873111" lon="0.114961">
        <ele>2067.8</ele>
        <time>2015-04-21T08:57:20Z</time>
      </trkpt>
      <trkpt lat="42.873034" lon="0.115037">
        <ele>2070.3</ele>
        <time>2015-04-21T08:57:46Z</time>
      </trkpt>
      <trkpt lat="42.872961" lon="0.115115">
        <ele>2072.6</ele>
        <time>2015-04-21T08:58:04Z</time>
      </trkpt>
      <trkpt lat="42.872871" lon="0.115168">
        <ele>2074.5</ele>
        <time>2015-04-21T08:58:24Z</time>
      </trkpt>
      <trkpt lat="42.872784" lon="0.115227">
        <ele>2077.2</ele>
        <time>2015-04-21T08:58:49Z</time>
      </trkpt>
      <trkpt lat="42.872694" lon="0.115277">
        <ele>2079.2</ele>
        <time>2015-04-21T08:59:09Z</time>
      </trkpt>
      <trkpt lat="42.872612" lon="0.115336">
        <ele>2081.1</ele>
        <time>2015-04-21T08:59:27Z</time>
      </trkpt>
      <trkpt lat="42.872509" lon="0.115353">
        <ele>2082.4</ele>
        <time>2015-04-21T08:59:44Z</time>
      </trkpt>
      <trkpt lat="42.872403" lon="0.115340">
        <ele>2083.8</ele>
        <time>2015-04-21T09:00:03Z</time>
      </trkpt>
      <trkpt lat="42.872305" lon="0.115294">
        <ele>2084.7</ele>
        <time>2015-04-21T09:00:19Z</time>
      </trkpt>
      <trkpt lat="42.872198" lon="0.115312">
        <ele>2087.6</ele>
        <time>2015-04-21T09:00:46Z</time>
      </trkpt>
      <trkpt lat="42.872106" lon="0.115350">
        <ele>2091.2</ele>
        <time>2015-04-21T09:01:08Z</time>
      </trkpt>
      <trkpt lat="42.872024" lon="0.115342">
        <ele>2094.8</ele>
        <time>2015-04-21T09:01:34Z</time>
      </trkpt>
      <trkpt lat="42.871976" lon="0.115427">
        <ele>2098.0</ele>
        <time>2015-04-21T09:02:02Z</time>
      </trkpt>
      <trkpt lat="42.871890" lon="0.115502">
        <ele>2100.9</ele>
        <time>2015-04-21T09:02:20Z</time>
      </trkpt>
      <trkpt lat="42.871842" lon="0.115589">
        <ele>2104.0</ele>
        <time>2015-04-21T09:02:42Z</time>
      </trkpt>
      <trkpt lat="42.871784" lon="0.115660">
        <ele>2107.1</ele>
        <time>2015-04-21T09:03:00Z</time>
      </trkpt>
      <trkpt lat="42.871735" lon="0.115762">
        <ele>2109.2</ele>
        <time>2015-04-21T09:03:20Z</time>
      </trkpt>
      <trkpt lat="42.871701" lon="0.115862">
        <ele>2110.3</ele>
        <time>2015-04-21T09:03:38Z</time>
      </trkpt>
      <trkpt lat="42.871684" lon="0.115992">
        <ele>2110.8</ele>
        <time>2015-04-21T09:03:56Z</time>
      </trkpt>
      <trkpt lat="42.871645" lon="0.116120">
        <ele>2111.8</ele>
        <time>2015-04-21T09:04:13Z</time>
      </trkpt>
      <trkpt lat="42.871610" lon="0.116231">
        <ele>2112.9</ele>
        <time>2015-04-21T09:04:29Z</time>
      </trkpt>
      <trkpt lat="42.871575" lon="0.116339">
        <ele>2113.2</ele>
        <time>2015-04-21T09:04:44Z</time>
      </trkpt>
      <trkpt lat="42.871558" lon="0.116431">
        <ele>2113.1</ele>
        <time>2015-04-21T09:05:03Z</time>
      </trkpt>
      <trkpt lat="42.871553" lon="0.116440">
        <ele>2113.9</ele>
        <time>2015-04-21T09:06:33Z</time>
      </trkpt>
      <trkpt lat="42.871536" lon="0.116533">
        <ele>2113.7</ele>
        <time>2015-04-21T09:07:31Z</time>
      </trkpt>
      <trkpt lat="42.871492" lon="0.116652">
        <ele>2114.1</ele>
        <time>2015-04-21T09:07:46Z</time>
      </trkpt>
      <trkpt lat="42.871446" lon="0.116761">
        <ele>2113.8</ele>
        <time>2015-04-21T09:08:01Z</time>
      </trkpt>
      <trkpt lat="42.871387" lon="0.116864">
        <ele>2112.6</ele>
        <time>2015-04-21T09:08:15Z</time>
      </trkpt>
      <trkpt lat="42.871329" lon="0.116959">
        <ele>2110.7</ele>
        <time>2015-04-21T09:08:25Z</time>
      </trkpt>
      <trkpt lat="42.871292" lon="0.117075">
        <ele>2109.5</ele>
        <time>2015-04-21T09:08:40Z</time>
      </trkpt>
      <trkpt lat="42.871267" lon="0.117200">
        <ele>2109.2</ele>
        <time>2015-04-21T09:08:57Z</time>
      </trkpt>
      <trkpt lat="42.871258" lon="0.117327">
        <ele>2108.7</ele>
        <time>2015-04-21T09:09:15Z</time>
      </trkpt>
      <trkpt lat="42.871254" lon="0.117461">
        <ele>2108.3</ele>
        <time>2015-04-21T09:09:31Z</time>
      </trkpt>
      <trkpt lat="42.871210" lon="0.117580">
        <ele>2107.8</ele>
        <time>2015-04-21T09:09:44Z</time>
      </trkpt>
      <trkpt lat="42.871147" lon="0.117681">
        <ele>2107.6</ele>
        <time>2015-04-21T09:10:02Z</time>
      </trkpt>
      <trkpt lat="42.871089" lon="0.117847">
        <ele>2110.0</ele>
        <time>2015-04-21T09:10:34Z</time>
      </trkpt>
      <trkpt lat="42.871033" lon="0.117951">
        <ele>2112.0</ele>
        <time>2015-04-21T09:10:53Z</time>
      </trkpt>
      <trkpt lat="42.870991" lon="0.118046">
        <ele>2112.6</ele>
        <time>2015-04-21T09:11:08Z</time>
      </trkpt>
      <trkpt lat="42.870964" lon="0.118134">
        <ele>2113.1</ele>
        <time>2015-04-21T09:11:21Z</time>
      </trkpt>
      <trkpt lat="42.870912" lon="0.118225">
        <ele>2115.7</ele>
        <time>2015-04-21T09:11:52Z</time>
      </trkpt>
      <trkpt lat="42.870853" lon="0.118334">
        <ele>2119.2</ele>
        <time>2015-04-21T09:12:20Z</time>
      </trkpt>
      <trkpt lat="42.870781" lon="0.118398">
        <ele>2121.2</ele>
        <time>2015-04-21T09:12:44Z</time>
      </trkpt>
      <trkpt lat="42.870749" lon="0.118524">
        <ele>2122.8</ele>
        <time>2015-04-21T09:13:06Z</time>
      </trkpt>
      <trkpt lat="42.870713" lon="0.118644">
        <ele>2125.4</ele>
        <time>2015-04-21T09:13:31Z</time>
      </trkpt>
      <trkpt lat="42.870710" lon="0.118758">
        <ele>2127.5</ele>
        <time>2015-04-21T09:13:50Z</time>
      </trkpt>
      <trkpt lat="42.870698" lon="0.118862">
        <ele>2129.9</ele>
        <time>2015-04-21T09:14:11Z</time>
      </trkpt>
      <trkpt lat="42.870680" lon="0.118981">
        <ele>2132.5</ele>
        <time>2015-04-21T09:14:27Z</time>
      </trkpt>
      <trkpt lat="42.870659" lon="0.119061">
        <ele>2135.0</ele>
        <time>2015-04-21T09:14:44Z</time>
      </trkpt>
      <trkpt lat="42.870661" lon="0.119177">
        <ele>2138.3</ele>
        <time>2015-04-21T09:15:08Z</time>
      </trkpt>
      <trkpt lat="42.870679" lon="0.119278">
        <ele>2140.1</ele>
        <time>2015-04-21T09:15:26Z</time>
      </trkpt>
      <trkpt lat="42.870684" lon="0.119410">
        <ele>2142.4</ele>
        <time>2015-04-21T09:15:45Z</time>
      </trkpt>
      <trkpt lat="42.870692" lon="0.119529">
        <ele>2144.8</ele>
        <time>2015-04-21T09:16:04Z</time>
      </trkpt>
      <trkpt lat="42.870715" lon="0.119611">
        <ele>2147.4</ele>
        <time>2015-04-21T09:16:24Z</time>
      </trkpt>
      <trkpt lat="42.870756" lon="0.119684">
        <ele>2150.0</ele>
        <time>2015-04-21T09:16:42Z</time>
      </trkpt>
      <trkpt lat="42.870741" lon="0.119824">
        <ele>2154.5</ele>
        <time>2015-04-21T09:17:16Z</time>
      </trkpt>
      <trkpt lat="42.870713" lon="0.119953">
        <ele>2156.2</ele>
        <time>2015-04-21T09:17:36Z</time>
      </trkpt>
      <trkpt lat="42.870705" lon="0.120052">
        <ele>2157.0</ele>
        <time>2015-04-21T09:17:54Z</time>
      </trkpt>
      <trkpt lat="42.870675" lon="0.120160">
        <ele>2159.4</ele>
        <time>2015-04-21T09:18:25Z</time>
      </trkpt>
      <trkpt lat="42.870660" lon="0.120288">
        <ele>2162.2</ele>
        <time>2015-04-21T09:18:52Z</time>
      </trkpt>
      <trkpt lat="42.870679" lon="0.120421">
        <ele>2164.1</ele>
        <time>2015-04-21T09:19:13Z</time>
      </trkpt>
      <trkpt lat="42.870697" lon="0.120541">
        <ele>2166.5</ele>
        <time>2015-04-21T09:19:34Z</time>
      </trkpt>
      <trkpt lat="42.870722" lon="0.120627">
        <ele>2169.7</ele>
        <time>2015-04-21T09:22:58Z</time>
      </trkpt>
      <trkpt lat="42.870749" lon="0.120745">
        <ele>2170.6</ele>
        <time>2015-04-21T09:23:17Z</time>
      </trkpt>
      <trkpt lat="42.870761" lon="0.120864">
        <ele>2171.3</ele>
        <time>2015-04-21T09:23:32Z</time>
      </trkpt>
      <trkpt lat="42.870758" lon="0.120975">
        <ele>2173.6</ele>
        <time>2015-04-21T09:23:49Z</time>
      </trkpt>
      <trkpt lat="42.870745" lon="0.121093">
        <ele>2175.6</ele>
        <time>2015-04-21T09:24:04Z</time>
      </trkpt>
      <trkpt lat="42.870738" lon="0.121214">
        <ele>2177.9</ele>
        <time>2015-04-21T09:24:20Z</time>
      </trkpt>
      <trkpt lat="42.870706" lon="0.121321">
        <ele>2180.1</ele>
        <time>2015-04-21T09:24:37Z</time>
      </trkpt>
      <trkpt lat="42.870656" lon="0.121434">
        <ele>2182.3</ele>
        <time>2015-04-21T09:24:53Z</time>
      </trkpt>
      <trkpt lat="42.870607" lon="0.121546">
        <ele>2183.5</ele>
        <time>2015-04-21T09:25:08Z</time>
      </trkpt>
      <trkpt lat="42.870546" lon="0.121648">
        <ele>2184.6</ele>
        <time>2015-04-21T09:25:29Z</time>
      </trkpt>
      <trkpt lat="42.870494" lon="0.121764">
        <ele>2185.7</ele>
        <time>2015-04-21T09:25:47Z</time>
      </trkpt>
      <trkpt lat="42.870474" lon="0.121877">
        <ele>2187.9</ele>
        <time>2015-04-21T09:26:06Z</time>
      </trkpt>
      <trkpt lat="42.870467" lon="0.122003">
        <ele>2189.5</ele>
        <time>2015-04-21T09:26:26Z</time>
      </trkpt>
      <trkpt lat="42.870461" lon="0.122057">
        <ele>2190.5</ele>
        <time>2015-04-21T09:27:14Z</time>
      </trkpt>
      <trkpt lat="42.870441" lon="0.122198">
        <ele>2191.1</ele>
        <time>2015-04-21T09:27:30Z</time>
      </trkpt>
      <trkpt lat="42.870410" lon="0.122313">
        <ele>2192.4</ele>
        <time>2015-04-21T09:27:47Z</time>
      </trkpt>
      <trkpt lat="42.870351" lon="0.122416">
        <ele>2193.9</ele>
        <time>2015-04-21T09:28:03Z</time>
      </trkpt>
      <trkpt lat="42.870359" lon="0.122510">
        <ele>2194.6</ele>
        <time>2015-04-21T09:28:19Z</time>
      </trkpt>
      <trkpt lat="42.870417" lon="0.122590">
        <ele>2195.7</ele>
        <time>2015-04-21T09:28:51Z</time>
      </trkpt>
      <trkpt lat="42.870396" lon="0.122595">
        <ele>2195.8</ele>
        <time>2015-04-21T09:29:57Z</time>
      </trkpt>
      <trkpt lat="42.870418" lon="0.122725">
        <ele>2194.4</ele>
        <time>2015-04-21T09:30:19Z</time>
      </trkpt>
      <trkpt lat="42.870438" lon="0.122840">
        <ele>2192.3</ele>
        <time>2015-04-21T09:30:29Z</time>
      </trkpt>
      <trkpt lat="42.870473" lon="0.122948">
        <ele>2189.7</ele>
        <time>2015-04-21T09:30:39Z</time>
      </trkpt>
      <trkpt lat="42.870490" lon="0.123069">
        <ele>2188.5</ele>
        <time>2015-04-21T09:30:52Z</time>
      </trkpt>
      <trkpt lat="42.870506" lon="0.123185">
        <ele>2188.9</ele>
        <time>2015-04-21T09:31:07Z</time>
      </trkpt>
      <trkpt lat="42.870498" lon="0.123317">
        <ele>2190.2</ele>
        <time>2015-04-21T09:31:26Z</time>
      </trkpt>
      <trkpt lat="42.870489" lon="0.123433">
        <ele>2190.7</ele>
        <time>2015-04-21T09:31:44Z</time>
      </trkpt>
      <trkpt lat="42.870536" lon="0.123560">
        <ele>2191.7</ele>
        <time>2015-04-21T09:32:00Z</time>
      </trkpt>
      <trkpt lat="42.870564" lon="0.123680">
        <ele>2193.3</ele>
        <time>2015-04-21T09:32:17Z</time>
      </trkpt>
      <trkpt lat="42.870578" lon="0.123805">
        <ele>2194.8</ele>
        <time>2015-04-21T09:32:33Z</time>
      </trkpt>
      <trkpt lat="42.870562" lon="0.123917">
        <ele>2197.3</ele>
        <time>2015-04-21T09:32:53Z</time>
      </trkpt>
      <trkpt lat="42.870595" lon="0.124012">
        <ele>2200.8</ele>
        <time>2015-04-21T09:33:22Z</time>
      </trkpt>
      <trkpt lat="42.870649" lon="0.124108">
        <ele>2205.4</ele>
        <time>2015-04-21T09:33:58Z</time>
      </trkpt>
      <trkpt lat="42.870687" lon="0.124197">
        <ele>2209.3</ele>
        <time>2015-04-21T09:34:29Z</time>
      </trkpt>
      <trkpt lat="42.870716" lon="0.124313">
        <ele>2212.4</ele>
        <time>2015-04-21T09:34:57Z</time>
      </trkpt>
      <trkpt lat="42.870788" lon="0.124339">
        <ele>2216.4</ele>
        <time>2015-04-21T09:35:30Z</time>
      </trkpt>
      <trkpt lat="42.870844" lon="0.124399">
        <ele>2220.1</ele>
        <time>2015-04-21T09:35:59Z</time>
      </trkpt>
      <trkpt lat="42.870908" lon="0.124488">
        <ele>2224.3</ele>
        <time>2015-04-21T09:36:38Z</time>
      </trkpt>
      <trkpt lat="42.870979" lon="0.124536">
        <ele>2227.6</ele>
        <time>2015-04-21T09:37:09Z</time>
      </trkpt>
      <trkpt lat="42.871064" lon="0.124576">
        <ele>2231.4</ele>
        <time>2015-04-21T09:37:43Z</time>
      </trkpt>
      <trkpt lat="42.871127" lon="0.124647">
        <ele>2234.6</ele>
        <time>2015-04-21T09:38:08Z</time>
      </trkpt>
      <trkpt lat="42.871205" lon="0.124704">
        <ele>2239.3</ele>
        <time>2015-04-21T09:38:46Z</time>
      </trkpt>
      <trkpt lat="42.871273" lon="0.124758">
        <ele>2242.6</ele>
        <time>2015-04-21T09:39:14Z</time>
      </trkpt>
      <trkpt lat="42.871265" lon="0.124824">
        <ele>2243.9</ele>
        <time>2015-04-21T09:40:17Z</time>
      </trkpt>
      <trkpt lat="42.871294" lon="0.124957">
        <ele>2246.1</ele>
        <time>2015-04-21T09:40:41Z</time>
      </trkpt>
      <trkpt lat="42.871295" lon="0.125065">
        <ele>2249.2</ele>
        <time>2015-04-21T09:41:09Z</time>
      </trkpt>
      <trkpt lat="42.871301" lon="0.125135">
        <ele>2251.3</ele>
        <time>2015-04-21T09:41:40Z</time>
      </trkpt>
      <trkpt lat="42.871319" lon="0.125266">
        <ele>2252.2</ele>
        <time>2015-04-21T09:42:02Z</time>
      </trkpt>
      <trkpt lat="42.871343" lon="0.125395">
        <ele>2253.7</ele>
        <time>2015-04-21T09:42:24Z</time>
      </trkpt>
      <trkpt lat="42.871364" lon="0.125504">
        <ele>2257.3</ele>
        <time>2015-04-21T09:42:56Z</time>
      </trkpt>
      <trkpt lat="42.871386" lon="0.125562">
        <ele>2260.1</ele>
        <time>2015-04-21T09:43:31Z</time>
      </trkpt>
      <trkpt lat="42.871444" lon="0.125597">
        <ele>2264.8</ele>
        <time>2015-04-21T09:44:21Z</time>
      </trkpt>
      <trkpt lat="42.871475" lon="0.125694">
        <ele>2269.3</ele>
        <time>2015-04-21T09:45:04Z</time>
      </trkpt>
      <trkpt lat="42.871521" lon="0.125763">
        <ele>2273.4</ele>
        <time>2015-04-21T09:45:41Z</time>
      </trkpt>
      <trkpt lat="42.871565" lon="0.125835">
        <ele>2277.3</ele>
        <time>2015-04-21T09:46:26Z</time>
      </trkpt>
      <trkpt lat="42.871649" lon="0.125864">
        <ele>2281.6</ele>
        <time>2015-04-21T09:47:04Z</time>
      </trkpt>
      <trkpt lat="42.871701" lon="0.125917">
        <ele>2285.0</ele>
        <time>2015-04-21T09:47:37Z</time>
      </trkpt>
      <trkpt lat="42.871757" lon="0.125974">
        <ele>2288.4</ele>
        <time>2015-04-21T09:48:07Z</time>
      </trkpt>
      <trkpt lat="42.871801" lon="0.126042">
        <ele>2290.3</ele>
        <time>2015-04-21T09:48:34Z</time>
      </trkpt>
      <trkpt lat="42.871821" lon="0.126149">
        <ele>2291.7</ele>
        <time>2015-04-21T09:48:56Z</time>
      </trkpt>
      <trkpt lat="42.871863" lon="0.126250">
        <ele>2294.2</ele>
        <time>2015-04-21T09:49:20Z</time>
      </trkpt>
      <trkpt lat="42.871934" lon="0.126329">
        <ele>2297.5</ele>
        <time>2015-04-21T09:49:50Z</time>
      </trkpt>
      <trkpt lat="42.871998" lon="0.126404">
        <ele>2301.8</ele>
        <time>2015-04-21T09:50:22Z</time>
      </trkpt>
      <trkpt lat="42.872068" lon="0.126463">
        <ele>2306.1</ele>
        <time>2015-04-21T09:50:59Z</time>
      </trkpt>
      <trkpt lat="42.872097" lon="0.126505">
        <ele>2308.4</ele>
        <time>2015-04-21T09:51:45Z</time>
      </trkpt>
      <trkpt lat="42.872122" lon="0.126594">
        <ele>2311.7</ele>
        <time>2015-04-21T09:52:25Z</time>
      </trkpt>
      <trkpt lat="42.872144" lon="0.126685">
        <ele>2315.5</ele>
        <time>2015-04-21T09:53:01Z</time>
      </trkpt>
      <trkpt lat="42.872182" lon="0.126747">
        <ele>2318.8</ele>
        <time>2015-04-21T09:53:32Z</time>
      </trkpt>
      <trkpt lat="42.872117" lon="0.126836">
        <ele>2321.5</ele>
        <time>2015-04-21T09:53:56Z</time>
      </trkpt>
      <trkpt lat="42.872105" lon="0.126925">
        <ele>2324.9</ele>
        <time>2015-04-21T09:54:22Z</time>
      </trkpt>
      <trkpt lat="42.872089" lon="0.127011">
        <ele>2328.1</ele>
        <time>2015-04-21T09:54:47Z</time>
      </trkpt>
      <trkpt lat="42.872095" lon="0.127100">
        <ele>2332.2</ele>
        <time>2015-04-21T09:55:17Z</time>
      </trkpt>
      <trkpt lat="42.872096" lon="0.127108">
        <ele>2332.7</ele>
        <time>2015-04-21T09:56:07Z</time>
      </trkpt>
      <trkpt lat="42.872106" lon="0.127108">
        <ele>2333.1</ele>
        <time>2015-04-21T09:56:57Z</time>
      </trkpt>
      <trkpt lat="42.872115" lon="0.127131">
        <ele>2333.1</ele>
        <time>2015-04-21T09:58:26Z</time>
      </trkpt>
      <trkpt lat="42.872086" lon="0.127170">
        <ele>2333.4</ele>
        <time>2015-04-21T10:00:47Z</time>
      </trkpt>
      <trkpt lat="42.872114" lon="0.127299">
        <ele>2335.8</ele>
        <time>2015-04-21T10:01:05Z</time>
      </trkpt>
      <trkpt lat="42.872102" lon="0.127427">
        <ele>2338.8</ele>
        <time>2015-04-21T10:01:25Z</time>
      </trkpt>
      <trkpt lat="42.872080" lon="0.127541">
        <ele>2343.2</ele>
        <time>2015-04-21T10:01:53Z</time>
      </trkpt>
      <trkpt lat="42.872049" lon="0.127675">
        <ele>2345.6</ele>
        <time>2015-04-21T10:02:11Z</time>
      </trkpt>
      <trkpt lat="42.872015" lon="0.127789">
        <ele>2347.4</ele>
        <time>2015-04-21T10:02:30Z</time>
      </trkpt>
      <trkpt lat="42.871991" lon="0.127910">
        <ele>2350.5</ele>
        <time>2015-04-21T10:02:51Z</time>
      </trkpt>
      <trkpt lat="42.871955" lon="0.128023">
        <ele>2354.0</ele>
        <time>2015-04-21T10:03:12Z</time>
      </trkpt>
      <trkpt lat="42.871897" lon="0.128105">
        <ele>2358.3</ele>
        <time>2015-04-21T10:03:34Z</time>
      </trkpt>
      <trkpt lat="42.871819" lon="0.128170">
        <ele>2361.9</ele>
        <time>2015-04-21T10:03:51Z</time>
      </trkpt>
      <trkpt lat="42.871751" lon="0.128230">
        <ele>2365.0</ele>
        <time>2015-04-21T10:04:09Z</time>
      </trkpt>
      <trkpt lat="42.871711" lon="0.128337">
        <ele>2368.8</ele>
        <time>2015-04-21T10:04:28Z</time>
      </trkpt>
      <trkpt lat="42.871656" lon="0.128455">
        <ele>2372.4</ele>
        <time>2015-04-21T10:04:47Z</time>
      </trkpt>
      <trkpt lat="42.871619" lon="0.128538">
        <ele>2375.2</ele>
        <time>2015-04-21T10:05:05Z</time>
      </trkpt>
      <trkpt lat="42.871559" lon="0.128629">
        <ele>2378.0</ele>
        <time>2015-04-21T10:05:23Z</time>
      </trkpt>
      <trkpt lat="42.871513" lon="0.128668">
        <ele>2380.7</ele>
        <time>2015-04-21T10:05:41Z</time>
      </trkpt>
      <trkpt lat="42.871523" lon="0.128791">
        <ele>2383.2</ele>
        <time>2015-04-21T10:05:58Z</time>
      </trkpt>
      <trkpt lat="42.871508" lon="0.128894">
        <ele>2386.3</ele>
        <time>2015-04-21T10:06:14Z</time>
      </trkpt>
      <trkpt lat="42.871446" lon="0.128963">
        <ele>2389.6</ele>
        <time>2015-04-21T10:06:31Z</time>
      </trkpt>
      <trkpt lat="42.871382" lon="0.129040">
        <ele>2392.7</ele>
        <time>2015-04-21T10:06:48Z</time>
      </trkpt>
      <trkpt lat="42.871312" lon="0.129097">
        <ele>2395.8</ele>
        <time>2015-04-21T10:07:06Z</time>
      </trkpt>
      <trkpt lat="42.871243" lon="0.129175">
        <ele>2398.7</ele>
        <time>2015-04-21T10:07:25Z</time>
      </trkpt>
      <trkpt lat="42.871168" lon="0.129268">
        <ele>2401.8</ele>
        <time>2015-04-21T10:07:50Z</time>
      </trkpt>
      <trkpt lat="42.871077" lon="0.129336">
        <ele>2404.6</ele>
        <time>2015-04-21T10:08:08Z</time>
      </trkpt>
      <trkpt lat="42.871023" lon="0.129445">
        <ele>2407.0</ele>
        <time>2015-04-21T10:08:26Z</time>
      </trkpt>
      <trkpt lat="42.870951" lon="0.129533">
        <ele>2409.8</ele>
        <time>2015-04-21T10:08:45Z</time>
      </trkpt>
      <trkpt lat="42.870857" lon="0.129626">
        <ele>2412.3</ele>
        <time>2015-04-21T10:09:02Z</time>
      </trkpt>
      <trkpt lat="42.870784" lon="0.129701">
        <ele>2413.8</ele>
        <time>2015-04-21T10:09:17Z</time>
      </trkpt>
      <trkpt lat="42.870715" lon="0.129786">
        <ele>2415.8</ele>
        <time>2015-04-21T10:09:33Z</time>
      </trkpt>
      <trkpt lat="42.870648" lon="0.129879">
        <ele>2417.8</ele>
        <time>2015-04-21T10:09:50Z</time>
      </trkpt>
      <trkpt lat="42.870582" lon="0.129951">
        <ele>2419.5</ele>
        <time>2015-04-21T10:10:05Z</time>
      </trkpt>
      <trkpt lat="42.870518" lon="0.130037">
        <ele>2421.6</ele>
        <time>2015-04-21T10:10:22Z</time>
      </trkpt>
      <trkpt lat="42.870460" lon="0.130123">
        <ele>2424.2</ele>
        <time>2015-04-21T10:10:42Z</time>
      </trkpt>
      <trkpt lat="42.870417" lon="0.130233">
        <ele>2427.2</ele>
        <time>2015-04-21T10:11:00Z</time>
      </trkpt>
      <trkpt lat="42.870334" lon="0.130300">
        <ele>2429.5</ele>
        <time>2015-04-21T10:11:16Z</time>
      </trkpt>
      <trkpt lat="42.870255" lon="0.130366">
        <ele>2431.4</ele>
        <time>2015-04-21T10:11:31Z</time>
      </trkpt>
      <trkpt lat="42.870163" lon="0.130424">
        <ele>2433.6</ele>
        <time>2015-04-21T10:11:46Z</time>
      </trkpt>
      <trkpt lat="42.870081" lon="0.130469">
        <ele>2435.9</ele>
        <time>2015-04-21T10:12:02Z</time>
      </trkpt>
      <trkpt lat="42.869993" lon="0.130495">
        <ele>2437.6</ele>
        <time>2015-04-21T10:12:15Z</time>
      </trkpt>
      <trkpt lat="42.869927" lon="0.130591">
        <ele>2439.6</ele>
        <time>2015-04-21T10:12:32Z</time>
      </trkpt>
      <trkpt lat="42.869880" lon="0.130687">
        <ele>2443.6</ele>
        <time>2015-04-21T10:12:49Z</time>
      </trkpt>
      <trkpt lat="42.869795" lon="0.130774">
        <ele>2445.8</ele>
        <time>2015-04-21T10:13:03Z</time>
      </trkpt>
      <trkpt lat="42.869725" lon="0.130821">
        <ele>2448.4</ele>
        <time>2015-04-21T10:13:20Z</time>
      </trkpt>
      <trkpt lat="42.869663" lon="0.130880">
        <ele>2450.9</ele>
        <time>2015-04-21T10:13:39Z</time>
      </trkpt>
      <trkpt lat="42.869581" lon="0.130950">
        <ele>2453.0</ele>
        <time>2015-04-21T10:13:58Z</time>
      </trkpt>
      <trkpt lat="42.869506" lon="0.131029">
        <ele>2454.8</ele>
        <time>2015-04-21T10:14:14Z</time>
      </trkpt>
      <trkpt lat="42.869420" lon="0.131035">
        <ele>2456.7</ele>
        <time>2015-04-21T10:14:30Z</time>
      </trkpt>
      <trkpt lat="42.869345" lon="0.131075">
        <ele>2458.8</ele>
        <time>2015-04-21T10:14:45Z</time>
      </trkpt>
      <trkpt lat="42.869301" lon="0.131168">
        <ele>2461.4</ele>
        <time>2015-04-21T10:15:00Z</time>
      </trkpt>
      <trkpt lat="42.869204" lon="0.131149">
        <ele>2464.2</ele>
        <time>2015-04-21T10:15:19Z</time>
      </trkpt>
      <trkpt lat="42.869161" lon="0.131225">
        <ele>2466.5</ele>
        <time>2015-04-21T10:15:36Z</time>
      </trkpt>
      <trkpt lat="42.869039" lon="0.131303">
        <ele>2471.6</ele>
        <time>2015-04-21T10:16:12Z</time>
      </trkpt>
      <trkpt lat="42.868972" lon="0.131342">
        <ele>2474.6</ele>
        <time>2015-04-21T10:16:34Z</time>
      </trkpt>
      <trkpt lat="42.868753" lon="0.131424">
        <ele>2485.3</ele>
        <time>2015-04-21T10:18:12Z</time>
      </trkpt>
      <trkpt lat="42.868742" lon="0.131477">
        <ele>2486.2</ele>
        <time>2015-04-21T10:18:46Z</time>
      </trkpt>
      <trkpt lat="42.868705" lon="0.131594">
        <ele>2487.3</ele>
        <time>2015-04-21T10:19:04Z</time>
      </trkpt>
      <trkpt lat="42.868646" lon="0.131688">
        <ele>2489.8</ele>
        <time>2015-04-21T10:19:22Z</time>
      </trkpt>
      <trkpt lat="42.868610" lon="0.131775">
        <ele>2492.0</ele>
        <time>2015-04-21T10:19:42Z</time>
      </trkpt>
      <trkpt lat="42.868588" lon="0.131892">
        <ele>2492.7</ele>
        <time>2015-04-21T10:20:02Z</time>
      </trkpt>
      <trkpt lat="42.868539" lon="0.131995">
        <ele>2492.8</ele>
        <time>2015-04-21T10:20:20Z</time>
      </trkpt>
      <trkpt lat="42.868509" lon="0.132098">
        <ele>2492.5</ele>
        <time>2015-04-21T10:20:56Z</time>
      </trkpt>
      <trkpt lat="42.868472" lon="0.132210">
        <ele>2492.8</ele>
        <time>2015-04-21T10:21:15Z</time>
      </trkpt>
      <trkpt lat="42.868447" lon="0.132316">
        <ele>2493.9</ele>
        <time>2015-04-21T10:21:36Z</time>
      </trkpt>
      <trkpt lat="42.868391" lon="0.132423">
        <ele>2494.3</ele>
        <time>2015-04-21T10:21:50Z</time>
      </trkpt>
      <trkpt lat="42.868340" lon="0.132516">
        <ele>2494.8</ele>
        <time>2015-04-21T10:22:08Z</time>
      </trkpt>
      <trkpt lat="42.868256" lon="0.132606">
        <ele>2495.4</ele>
        <time>2015-04-21T10:22:28Z</time>
      </trkpt>
      <trkpt lat="42.868201" lon="0.132686">
        <ele>2496.9</ele>
        <time>2015-04-21T10:22:48Z</time>
      </trkpt>
      <trkpt lat="42.868096" lon="0.132719">
        <ele>2498.7</ele>
        <time>2015-04-21T10:23:09Z</time>
      </trkpt>
      <trkpt lat="42.868004" lon="0.132768">
        <ele>2500.4</ele>
        <time>2015-04-21T10:23:29Z</time>
      </trkpt>
      <trkpt lat="42.867968" lon="0.132870">
        <ele>2502.1</ele>
        <time>2015-04-21T10:23:48Z</time>
      </trkpt>
      <trkpt lat="42.867961" lon="0.132841">
        <ele>2502.6</ele>
        <time>2015-04-21T10:24:23Z</time>
      </trkpt>
      <trkpt lat="42.867946" lon="0.132885">
        <ele>2502.6</ele>
        <time>2015-04-21T10:25:13Z</time>
      </trkpt>
      <trkpt lat="42.867871" lon="0.132963">
        <ele>2503.6</ele>
        <time>2015-04-21T10:25:30Z</time>
      </trkpt>
      <trkpt lat="42.867792" lon="0.133044">
        <ele>2505.7</ele>
        <time>2015-04-21T10:25:50Z</time>
      </trkpt>
      <trkpt lat="42.867720" lon="0.133137">
        <ele>2507.4</ele>
        <time>2015-04-21T10:26:08Z</time>
      </trkpt>
      <trkpt lat="42.867653" lon="0.133233">
        <ele>2508.6</ele>
        <time>2015-04-21T10:26:24Z</time>
      </trkpt>
      <trkpt lat="42.867590" lon="0.133317">
        <ele>2509.8</ele>
        <time>2015-04-21T10:26:39Z</time>
      </trkpt>
      <trkpt lat="42.867512" lon="0.133391">
        <ele>2511.4</ele>
        <time>2015-04-21T10:26:57Z</time>
      </trkpt>
      <trkpt lat="42.867417" lon="0.133444">
        <ele>2513.5</ele>
        <time>2015-04-21T10:27:19Z</time>
      </trkpt>
      <trkpt lat="42.867400" lon="0.133594">
        <ele>2516.3</ele>
        <time>2015-04-21T10:27:59Z</time>
      </trkpt>
      <trkpt lat="42.867455" lon="0.133771">
        <ele>2513.5</ele>
        <time>2015-04-21T10:28:35Z</time>
      </trkpt>
      <trkpt lat="42.867439" lon="0.133880">
        <ele>2516.7</ele>
        <time>2015-04-21T10:29:02Z</time>
      </trkpt>
      <trkpt lat="42.867438" lon="0.133993">
        <ele>2519.9</ele>
        <time>2015-04-21T10:29:31Z</time>
      </trkpt>
      <trkpt lat="42.867420" lon="0.134050">
        <ele>2522.2</ele>
        <time>2015-04-21T10:54:45Z</time>
      </trkpt>
      <trkpt lat="42.867422" lon="0.134049">
        <ele>2522.4</ele>
        <time>2015-04-21T10:54:51Z</time>
      </trkpt>
      <trkpt lat="42.867383" lon="0.134059">
        <ele>2549.4</ele>
        <time>2015-04-21T11:15:03Z</time>
      </trkpt>
      <trkpt lat="42.867365" lon="0.134068">
        <ele>2551.4</ele>
        <time>2015-04-21T11:16:18Z</time>
      </trkpt>
      <trkpt lat="42.867414" lon="0.134102">
        <ele>2551.5</ele>
        <time>2015-04-21T11:17:48Z</time>
      </trkpt>
      <trkpt lat="42.867464" lon="0.134041">
        <ele>2549.1</ele>
        <time>2015-04-21T11:21:26Z</time>
      </trkpt>
      <trkpt lat="42.867464" lon="0.133700">
        <ele>2536.1</ele>
        <time>2015-04-21T11:22:46Z</time>
      </trkpt>
      <trkpt lat="42.867425" lon="0.133591">
        <ele>2536.6</ele>
        <time>2015-04-21T11:23:05Z</time>
      </trkpt>
      <trkpt lat="42.867468" lon="0.133474">
        <ele>2537.6</ele>
        <time>2015-04-21T11:23:28Z</time>
      </trkpt>
      <trkpt lat="42.867535" lon="0.133370">
        <ele>2536.8</ele>
        <time>2015-04-21T11:23:42Z</time>
      </trkpt>
      <trkpt lat="42.867605" lon="0.133282">
        <ele>2534.7</ele>
        <time>2015-04-21T11:23:55Z</time>
      </trkpt>
      <trkpt lat="42.867673" lon="0.133188">
        <ele>2532.4</ele>
        <time>2015-04-21T11:24:07Z</time>
      </trkpt>
      <trkpt lat="42.867734" lon="0.133093">
        <ele>2531.6</ele>
        <time>2015-04-21T11:24:21Z</time>
      </trkpt>
      <trkpt lat="42.867814" lon="0.133009">
        <ele>2529.5</ele>
        <time>2015-04-21T11:25:00Z</time>
      </trkpt>
      <trkpt lat="42.867888" lon="0.132924">
        <ele>2527.5</ele>
        <time>2015-04-21T11:25:14Z</time>
      </trkpt>
      <trkpt lat="42.867972" lon="0.132826">
        <ele>2525.6</ele>
        <time>2015-04-21T11:25:26Z</time>
      </trkpt>
      <trkpt lat="42.868025" lon="0.132748">
        <ele>2523.6</ele>
        <time>2015-04-21T11:25:38Z</time>
      </trkpt>
      <trkpt lat="42.868101" lon="0.132710">
        <ele>2522.5</ele>
        <time>2015-04-21T11:25:49Z</time>
      </trkpt>
      <trkpt lat="42.868188" lon="0.132665">
        <ele>2521.1</ele>
        <time>2015-04-21T11:25:59Z</time>
      </trkpt>
      <trkpt lat="42.868260" lon="0.132566">
        <ele>2519.8</ele>
        <time>2015-04-21T11:26:10Z</time>
      </trkpt>
      <trkpt lat="42.868335" lon="0.132469">
        <ele>2519.2</ele>
        <time>2015-04-21T11:26:23Z</time>
      </trkpt>
      <trkpt lat="42.868386" lon="0.132362">
        <ele>2518.8</ele>
        <time>2015-04-21T11:26:39Z</time>
      </trkpt>
      <trkpt lat="42.868458" lon="0.132243">
        <ele>2517.8</ele>
        <time>2015-04-21T11:26:54Z</time>
      </trkpt>
      <trkpt lat="42.868509" lon="0.132135">
        <ele>2516.3</ele>
        <time>2015-04-21T11:27:10Z</time>
      </trkpt>
      <trkpt lat="42.868563" lon="0.132030">
        <ele>2515.3</ele>
        <time>2015-04-21T11:27:27Z</time>
      </trkpt>
      <trkpt lat="42.868593" lon="0.131914">
        <ele>2516.7</ele>
        <time>2015-04-21T11:27:37Z</time>
      </trkpt>
      <trkpt lat="42.868587" lon="0.131840">
        <ele>2518.8</ele>
        <time>2015-04-21T11:28:09Z</time>
      </trkpt>
      <trkpt lat="42.868619" lon="0.131731">
        <ele>2519.7</ele>
        <time>2015-04-21T11:28:26Z</time>
      </trkpt>
      <trkpt lat="42.868675" lon="0.131645">
        <ele>2519.4</ele>
        <time>2015-04-21T11:28:40Z</time>
      </trkpt>
      <trkpt lat="42.868729" lon="0.131517">
        <ele>2519.9</ele>
        <time>2015-04-21T11:28:57Z</time>
      </trkpt>
      <trkpt lat="42.868831" lon="0.131488">
        <ele>2516.6</ele>
        <time>2015-04-21T11:29:09Z</time>
      </trkpt>
      <trkpt lat="42.868904" lon="0.131446">
        <ele>2514.3</ele>
        <time>2015-04-21T11:29:22Z</time>
      </trkpt>
      <trkpt lat="42.868997" lon="0.131397">
        <ele>2510.0</ele>
        <time>2015-04-21T11:29:37Z</time>
      </trkpt>
      <trkpt lat="42.869061" lon="0.131352">
        <ele>2506.2</ele>
        <time>2015-04-21T11:29:54Z</time>
      </trkpt>
      <trkpt lat="42.869150" lon="0.131312">
        <ele>2503.1</ele>
        <time>2015-04-21T11:30:10Z</time>
      </trkpt>
      <trkpt lat="42.869248" lon="0.131282">
        <ele>2499.9</ele>
        <time>2015-04-21T11:30:24Z</time>
      </trkpt>
      <trkpt lat="42.869338" lon="0.131262">
        <ele>2498.7</ele>
        <time>2015-04-21T11:30:37Z</time>
      </trkpt>
      <trkpt lat="42.869429" lon="0.131204">
        <ele>2494.1</ele>
        <time>2015-04-21T11:30:51Z</time>
      </trkpt>
      <trkpt lat="42.869486" lon="0.131100">
        <ele>2491.0</ele>
        <time>2015-04-21T11:31:03Z</time>
      </trkpt>
      <trkpt lat="42.869559" lon="0.131005">
        <ele>2487.5</ele>
        <time>2015-04-21T11:31:17Z</time>
      </trkpt>
      <trkpt lat="42.869643" lon="0.130902">
        <ele>2484.7</ele>
        <time>2015-04-21T11:31:30Z</time>
      </trkpt>
      <trkpt lat="42.869714" lon="0.130814">
        <ele>2484.4</ele>
        <time>2015-04-21T11:31:47Z</time>
      </trkpt>
      <trkpt lat="42.869788" lon="0.130764">
        <ele>2483.4</ele>
        <time>2015-04-21T11:32:03Z</time>
      </trkpt>
      <trkpt lat="42.869825" lon="0.130758">
        <ele>2484.2</ele>
        <time>2015-04-21T11:32:22Z</time>
      </trkpt>
      <trkpt lat="42.869897" lon="0.130647">
        <ele>2482.4</ele>
        <time>2015-04-21T11:32:37Z</time>
      </trkpt>
      <trkpt lat="42.869962" lon="0.130545">
        <ele>2479.1</ele>
        <time>2015-04-21T11:32:52Z</time>
      </trkpt>
      <trkpt lat="42.870050" lon="0.130485">
        <ele>2476.1</ele>
        <time>2015-04-21T11:33:13Z</time>
      </trkpt>
      <trkpt lat="42.870150" lon="0.130436">
        <ele>2472.8</ele>
        <time>2015-04-21T11:33:28Z</time>
      </trkpt>
      <trkpt lat="42.870236" lon="0.130412">
        <ele>2470.3</ele>
        <time>2015-04-21T11:33:54Z</time>
      </trkpt>
      <trkpt lat="42.870326" lon="0.130343">
        <ele>2468.4</ele>
        <time>2015-04-21T11:34:07Z</time>
      </trkpt>
      <trkpt lat="42.870379" lon="0.130280">
        <ele>2467.2</ele>
        <time>2015-04-21T11:34:21Z</time>
      </trkpt>
      <trkpt lat="42.870453" lon="0.130177">
        <ele>2463.4</ele>
        <time>2015-04-21T11:34:38Z</time>
      </trkpt>
      <trkpt lat="42.870510" lon="0.130075">
        <ele>2458.0</ele>
        <time>2015-04-21T11:35:03Z</time>
      </trkpt>
      <trkpt lat="42.870562" lon="0.129957">
        <ele>2455.4</ele>
        <time>2015-04-21T11:35:17Z</time>
      </trkpt>
      <trkpt lat="42.870637" lon="0.129859">
        <ele>2453.8</ele>
        <time>2015-04-21T11:35:31Z</time>
      </trkpt>
      <trkpt lat="42.870698" lon="0.129770">
        <ele>2452.8</ele>
        <time>2015-04-21T11:35:43Z</time>
      </trkpt>
      <trkpt lat="42.870762" lon="0.129708">
        <ele>2450.1</ele>
        <time>2015-04-21T11:35:57Z</time>
      </trkpt>
      <trkpt lat="42.870879" lon="0.129597">
        <ele>2444.9</ele>
        <time>2015-04-21T11:36:56Z</time>
      </trkpt>
      <trkpt lat="42.870968" lon="0.129487">
        <ele>2442.1</ele>
        <time>2015-04-21T11:37:11Z</time>
      </trkpt>
      <trkpt lat="42.871042" lon="0.129401">
        <ele>2439.6</ele>
        <time>2015-04-21T11:37:24Z</time>
      </trkpt>
      <trkpt lat="42.871113" lon="0.129330">
        <ele>2435.6</ele>
        <time>2015-04-21T11:37:51Z</time>
      </trkpt>
      <trkpt lat="42.871163" lon="0.129254">
        <ele>2431.8</ele>
        <time>2015-04-21T11:43:17Z</time>
      </trkpt>
      <trkpt lat="42.871236" lon="0.129156">
        <ele>2429.8</ele>
        <time>2015-04-21T11:43:27Z</time>
      </trkpt>
      <trkpt lat="42.871315" lon="0.129077">
        <ele>2426.5</ele>
        <time>2015-04-21T11:43:39Z</time>
      </trkpt>
      <trkpt lat="42.871383" lon="0.128984">
        <ele>2422.3</ele>
        <time>2015-04-21T11:43:50Z</time>
      </trkpt>
      <trkpt lat="42.871433" lon="0.128888">
        <ele>2418.5</ele>
        <time>2015-04-21T11:44:01Z</time>
      </trkpt>
      <trkpt lat="42.871495" lon="0.128784">
        <ele>2415.7</ele>
        <time>2015-04-21T11:44:11Z</time>
      </trkpt>
      <trkpt lat="42.871558" lon="0.128676">
        <ele>2412.4</ele>
        <time>2015-04-21T11:44:22Z</time>
      </trkpt>
      <trkpt lat="42.871597" lon="0.128544">
        <ele>2410.5</ele>
        <time>2015-04-21T11:44:34Z</time>
      </trkpt>
      <trkpt lat="42.871657" lon="0.128450">
        <ele>2408.3</ele>
        <time>2015-04-21T11:44:44Z</time>
      </trkpt>
      <trkpt lat="42.871711" lon="0.128362">
        <ele>2405.4</ele>
        <time>2015-04-21T11:44:54Z</time>
      </trkpt>
      <trkpt lat="42.871742" lon="0.128272">
        <ele>2401.4</ele>
        <time>2015-04-21T11:45:05Z</time>
      </trkpt>
      <trkpt lat="42.871793" lon="0.128198">
        <ele>2396.7</ele>
        <time>2015-04-21T11:45:16Z</time>
      </trkpt>
      <trkpt lat="42.871850" lon="0.128059">
        <ele>2393.0</ele>
        <time>2015-04-21T11:45:28Z</time>
      </trkpt>
      <trkpt lat="42.871895" lon="0.127974">
        <ele>2390.3</ele>
        <time>2015-04-21T11:45:40Z</time>
      </trkpt>
      <trkpt lat="42.871939" lon="0.127883">
        <ele>2387.8</ele>
        <time>2015-04-21T11:45:51Z</time>
      </trkpt>
      <trkpt lat="42.871983" lon="0.127809">
        <ele>2383.5</ele>
        <time>2015-04-21T11:46:01Z</time>
      </trkpt>
      <trkpt lat="42.872028" lon="0.127726">
        <ele>2379.2</ele>
        <time>2015-04-21T11:46:12Z</time>
      </trkpt>
      <trkpt lat="42.872061" lon="0.127633">
        <ele>2376.2</ele>
        <time>2015-04-21T11:46:22Z</time>
      </trkpt>
      <trkpt lat="42.872052" lon="0.127526">
        <ele>2371.8</ele>
        <time>2015-04-21T11:46:37Z</time>
      </trkpt>
      <trkpt lat="42.872076" lon="0.127405">
        <ele>2368.1</ele>
        <time>2015-04-21T11:46:49Z</time>
      </trkpt>
      <trkpt lat="42.872089" lon="0.127283">
        <ele>2364.4</ele>
        <time>2015-04-21T11:47:01Z</time>
      </trkpt>
      <trkpt lat="42.872096" lon="0.127166">
        <ele>2362.6</ele>
        <time>2015-04-21T11:47:11Z</time>
      </trkpt>
      <trkpt lat="42.872110" lon="0.127061">
        <ele>2359.1</ele>
        <time>2015-04-21T11:47:19Z</time>
      </trkpt>
      <trkpt lat="42.872136" lon="0.126951">
        <ele>2354.4</ele>
        <time>2015-04-21T11:47:28Z</time>
      </trkpt>
      <trkpt lat="42.872160" lon="0.126833">
        <ele>2349.3</ele>
        <time>2015-04-21T11:47:38Z</time>
      </trkpt>
      <trkpt lat="42.872159" lon="0.126718">
        <ele>2344.4</ele>
        <time>2015-04-21T11:47:48Z</time>
      </trkpt>
      <trkpt lat="42.872136" lon="0.126619">
        <ele>2338.8</ele>
        <time>2015-04-21T11:47:57Z</time>
      </trkpt>
      <trkpt lat="42.872104" lon="0.126517">
        <ele>2333.1</ele>
        <time>2015-04-21T11:48:07Z</time>
      </trkpt>
      <trkpt lat="42.872078" lon="0.126411">
        <ele>2327.4</ele>
        <time>2015-04-21T11:48:18Z</time>
      </trkpt>
      <trkpt lat="42.872020" lon="0.126316">
        <ele>2321.3</ele>
        <time>2015-04-21T11:48:33Z</time>
      </trkpt>
      <trkpt lat="42.871982" lon="0.126192">
        <ele>2318.3</ele>
        <time>2015-04-21T11:48:46Z</time>
      </trkpt>
      <trkpt lat="42.871972" lon="0.126150">
        <ele>2317.2</ele>
        <time>2015-04-21T11:50:07Z</time>
      </trkpt>
      <trkpt lat="42.871891" lon="0.126087">
        <ele>2317.3</ele>
        <time>2015-04-21T11:50:37Z</time>
      </trkpt>
      <trkpt lat="42.871836" lon="0.126045">
        <ele>2315.0</ele>
        <time>2015-04-21T11:51:29Z</time>
      </trkpt>
      <trkpt lat="42.871748" lon="0.125971">
        <ele>2311.5</ele>
        <time>2015-04-21T11:51:42Z</time>
      </trkpt>
      <trkpt lat="42.871671" lon="0.125883">
        <ele>2308.8</ele>
        <time>2015-04-21T11:51:52Z</time>
      </trkpt>
      <trkpt lat="42.871582" lon="0.125832">
        <ele>2304.9</ele>
        <time>2015-04-21T11:52:00Z</time>
      </trkpt>
      <trkpt lat="42.871518" lon="0.125762">
        <ele>2298.1</ele>
        <time>2015-04-21T11:52:09Z</time>
      </trkpt>
      <trkpt lat="42.871481" lon="0.125672">
        <ele>2291.6</ele>
        <time>2015-04-21T11:52:18Z</time>
      </trkpt>
      <trkpt lat="42.871432" lon="0.125571">
        <ele>2284.8</ele>
        <time>2015-04-21T11:52:27Z</time>
      </trkpt>
      <trkpt lat="42.871386" lon="0.125425">
        <ele>2282.8</ele>
        <time>2015-04-21T11:52:41Z</time>
      </trkpt>
      <trkpt lat="42.871353" lon="0.125327">
        <ele>2280.6</ele>
        <time>2015-04-21T11:52:51Z</time>
      </trkpt>
      <trkpt lat="42.871330" lon="0.125214">
        <ele>2278.5</ele>
        <time>2015-04-21T11:53:01Z</time>
      </trkpt>
      <trkpt lat="42.871338" lon="0.125109">
        <ele>2275.8</ele>
        <time>2015-04-21T11:53:12Z</time>
      </trkpt>
      <trkpt lat="42.871338" lon="0.125007">
        <ele>2273.4</ele>
        <time>2015-04-21T11:53:22Z</time>
      </trkpt>
      <trkpt lat="42.871314" lon="0.124910">
        <ele>2269.9</ele>
        <time>2015-04-21T11:53:33Z</time>
      </trkpt>
      <trkpt lat="42.871291" lon="0.124791">
        <ele>2266.4</ele>
        <time>2015-04-21T11:53:45Z</time>
      </trkpt>
      <trkpt lat="42.871260" lon="0.124695">
        <ele>2263.1</ele>
        <time>2015-04-21T11:54:00Z</time>
      </trkpt>
      <trkpt lat="42.871268" lon="0.124624">
        <ele>2261.6</ele>
        <time>2015-04-21T11:54:22Z</time>
      </trkpt>
      <trkpt lat="42.871235" lon="0.124573">
        <ele>2262.3</ele>
        <time>2015-04-21T11:55:19Z</time>
      </trkpt>
      <trkpt lat="42.871217" lon="0.124463">
        <ele>2259.2</ele>
        <time>2015-04-21T11:55:28Z</time>
      </trkpt>
      <trkpt lat="42.871148" lon="0.124360">
        <ele>2256.6</ele>
        <time>2015-04-21T11:55:40Z</time>
      </trkpt>
      <trkpt lat="42.871085" lon="0.124269">
        <ele>2252.4</ele>
        <time>2015-04-21T11:55:52Z</time>
      </trkpt>
      <trkpt lat="42.871099" lon="0.124211">
        <ele>2248.1</ele>
        <time>2015-04-21T11:56:11Z</time>
      </trkpt>
      <trkpt lat="42.871109" lon="0.124152">
        <ele>2244.2</ele>
        <time>2015-04-21T11:56:29Z</time>
      </trkpt>
      <trkpt lat="42.871162" lon="0.124029">
        <ele>2242.5</ele>
        <time>2015-04-21T11:56:42Z</time>
      </trkpt>
      <trkpt lat="42.871216" lon="0.123894">
        <ele>2242.0</ele>
        <time>2015-04-21T11:56:52Z</time>
      </trkpt>
      <trkpt lat="42.871228" lon="0.123774">
        <ele>2238.3</ele>
        <time>2015-04-21T11:57:01Z</time>
      </trkpt>
      <trkpt lat="42.871245" lon="0.123676">
        <ele>2232.1</ele>
        <time>2015-04-21T11:57:11Z</time>
      </trkpt>
      <trkpt lat="42.871304" lon="0.123595">
        <ele>2227.3</ele>
        <time>2015-04-21T11:57:23Z</time>
      </trkpt>
      <trkpt lat="42.871370" lon="0.123523">
        <ele>2225.6</ele>
        <time>2015-04-21T11:57:33Z</time>
      </trkpt>
      <trkpt lat="42.871431" lon="0.123434">
        <ele>2222.7</ele>
        <time>2015-04-21T11:57:45Z</time>
      </trkpt>
      <trkpt lat="42.871467" lon="0.123316">
        <ele>2219.7</ele>
        <time>2015-04-21T11:57:57Z</time>
      </trkpt>
      <trkpt lat="42.871505" lon="0.123203">
        <ele>2214.4</ele>
        <time>2015-04-21T11:58:09Z</time>
      </trkpt>
      <trkpt lat="42.871533" lon="0.123088">
        <ele>2209.8</ele>
        <time>2015-04-21T11:58:20Z</time>
      </trkpt>
      <trkpt lat="42.871568" lon="0.122994">
        <ele>2206.7</ele>
        <time>2015-04-21T11:58:30Z</time>
      </trkpt>
      <trkpt lat="42.871586" lon="0.122945">
        <ele>2205.2</ele>
        <time>2015-04-21T11:59:00Z</time>
      </trkpt>
      <trkpt lat="42.871614" lon="0.122834">
        <ele>2202.2</ele>
        <time>2015-04-21T11:59:10Z</time>
      </trkpt>
      <trkpt lat="42.871678" lon="0.122727">
        <ele>2200.0</ele>
        <time>2015-04-21T11:59:21Z</time>
      </trkpt>
      <trkpt lat="42.871735" lon="0.122645">
        <ele>2198.4</ele>
        <time>2015-04-21T11:59:31Z</time>
      </trkpt>
      <trkpt lat="42.871809" lon="0.122568">
        <ele>2196.5</ele>
        <time>2015-04-21T11:59:43Z</time>
      </trkpt>
      <trkpt lat="42.871873" lon="0.122485">
        <ele>2195.2</ele>
        <time>2015-04-21T11:59:53Z</time>
      </trkpt>
      <trkpt lat="42.871927" lon="0.122408">
        <ele>2192.7</ele>
        <time>2015-04-21T12:00:03Z</time>
      </trkpt>
      <trkpt lat="42.871981" lon="0.122320">
        <ele>2190.8</ele>
        <time>2015-04-21T12:00:14Z</time>
      </trkpt>
      <trkpt lat="42.872059" lon="0.122241">
        <ele>2187.9</ele>
        <time>2015-04-21T12:00:26Z</time>
      </trkpt>
      <trkpt lat="42.872130" lon="0.122144">
        <ele>2183.6</ele>
        <time>2015-04-21T12:00:38Z</time>
      </trkpt>
      <trkpt lat="42.872201" lon="0.122078">
        <ele>2179.5</ele>
        <time>2015-04-21T12:00:51Z</time>
      </trkpt>
      <trkpt lat="42.872263" lon="0.121995">
        <ele>2175.0</ele>
        <time>2015-04-21T12:01:05Z</time>
      </trkpt>
      <trkpt lat="42.872360" lon="0.121967">
        <ele>2171.9</ele>
        <time>2015-04-21T12:01:17Z</time>
      </trkpt>
      <trkpt lat="42.872413" lon="0.121861">
        <ele>2168.9</ele>
        <time>2015-04-21T12:01:30Z</time>
      </trkpt>
      <trkpt lat="42.872458" lon="0.121746">
        <ele>2163.8</ele>
        <time>2015-04-21T12:01:41Z</time>
      </trkpt>
      <trkpt lat="42.872514" lon="0.121624">
        <ele>2159.5</ele>
        <time>2015-04-21T12:01:58Z</time>
      </trkpt>
      <trkpt lat="42.872557" lon="0.121508">
        <ele>2156.7</ele>
        <time>2015-04-21T12:02:12Z</time>
      </trkpt>
      <trkpt lat="42.872648" lon="0.121474">
        <ele>2151.1</ele>
        <time>2015-04-21T12:02:30Z</time>
      </trkpt>
      <trkpt lat="42.872738" lon="0.121458">
        <ele>2146.7</ele>
        <time>2015-04-21T12:02:45Z</time>
      </trkpt>
      <trkpt lat="42.872830" lon="0.121395">
        <ele>2146.3</ele>
        <time>2015-04-21T12:03:05Z</time>
      </trkpt>
      <trkpt lat="42.872920" lon="0.121327">
        <ele>2146.1</ele>
        <time>2015-04-21T12:03:27Z</time>
      </trkpt>
      <trkpt lat="42.873000" lon="0.121246">
        <ele>2144.0</ele>
        <time>2015-04-21T12:03:39Z</time>
      </trkpt>
      <trkpt lat="42.873077" lon="0.121170">
        <ele>2140.9</ele>
        <time>2015-04-21T12:03:53Z</time>
      </trkpt>
      <trkpt lat="42.873158" lon="0.121122">
        <ele>2139.7</ele>
        <time>2015-04-21T12:04:03Z</time>
      </trkpt>
      <trkpt lat="42.873246" lon="0.121101">
        <ele>2137.8</ele>
        <time>2015-04-21T12:04:20Z</time>
      </trkpt>
      <trkpt lat="42.873325" lon="0.121092">
        <ele>2135.6</ele>
        <time>2015-04-21T12:04:31Z</time>
      </trkpt>
      <trkpt lat="42.873419" lon="0.121079">
        <ele>2133.7</ele>
        <time>2015-04-21T12:04:49Z</time>
      </trkpt>
      <trkpt lat="42.873521" lon="0.121049">
        <ele>2132.0</ele>
        <time>2015-04-21T12:05:14Z</time>
      </trkpt>
      <trkpt lat="42.873613" lon="0.121020">
        <ele>2132.2</ele>
        <time>2015-04-21T12:05:30Z</time>
      </trkpt>
      <trkpt lat="42.873646" lon="0.121005">
        <ele>2130.4</ele>
        <time>2015-04-21T12:06:39Z</time>
      </trkpt>
      <trkpt lat="42.873744" lon="0.120977">
        <ele>2130.8</ele>
        <time>2015-04-21T12:06:54Z</time>
      </trkpt>
      <trkpt lat="42.873856" lon="0.120938">
        <ele>2131.8</ele>
        <time>2015-04-21T12:07:10Z</time>
      </trkpt>
      <trkpt lat="42.873960" lon="0.120884">
        <ele>2132.7</ele>
        <time>2015-04-21T12:07:30Z</time>
      </trkpt>
      <trkpt lat="42.874061" lon="0.120857">
        <ele>2135.2</ele>
        <time>2015-04-21T12:07:46Z</time>
      </trkpt>
      <trkpt lat="42.874155" lon="0.120833">
        <ele>2135.9</ele>
        <time>2015-04-21T12:08:06Z</time>
      </trkpt>
      <trkpt lat="42.874257" lon="0.120828">
        <ele>2135.4</ele>
        <time>2015-04-21T12:08:21Z</time>
      </trkpt>
      <trkpt lat="42.874351" lon="0.120827">
        <ele>2134.6</ele>
        <time>2015-04-21T12:08:37Z</time>
      </trkpt>
      <trkpt lat="42.874453" lon="0.120807">
        <ele>2131.6</ele>
        <time>2015-04-21T12:08:54Z</time>
      </trkpt>
      <trkpt lat="42.874554" lon="0.120777">
        <ele>2131.4</ele>
        <time>2015-04-21T12:09:37Z</time>
      </trkpt>
      <trkpt lat="42.874613" lon="0.120746">
        <ele>2130.3</ele>
        <time>2015-04-21T12:10:30Z</time>
      </trkpt>
      <trkpt lat="42.874703" lon="0.120689">
        <ele>2127.6</ele>
        <time>2015-04-21T12:10:40Z</time>
      </trkpt>
      <trkpt lat="42.874782" lon="0.120612">
        <ele>2124.7</ele>
        <time>2015-04-21T12:10:52Z</time>
      </trkpt>
      <trkpt lat="42.874866" lon="0.120526">
        <ele>2120.7</ele>
        <time>2015-04-21T12:11:03Z</time>
      </trkpt>
      <trkpt lat="42.874938" lon="0.120435">
        <ele>2116.2</ele>
        <time>2015-04-21T12:11:14Z</time>
      </trkpt>
      <trkpt lat="42.875010" lon="0.120351">
        <ele>2110.9</ele>
        <time>2015-04-21T12:11:25Z</time>
      </trkpt>
      <trkpt lat="42.875079" lon="0.120277">
        <ele>2106.8</ele>
        <time>2015-04-21T12:11:38Z</time>
      </trkpt>
      <trkpt lat="42.875152" lon="0.120226">
        <ele>2101.8</ele>
        <time>2015-04-21T12:11:54Z</time>
      </trkpt>
      <trkpt lat="42.875237" lon="0.120161">
        <ele>2098.8</ele>
        <time>2015-04-21T12:12:07Z</time>
      </trkpt>
      <trkpt lat="42.875319" lon="0.120116">
        <ele>2096.3</ele>
        <time>2015-04-21T12:12:18Z</time>
      </trkpt>
      <trkpt lat="42.875402" lon="0.120072">
        <ele>2094.0</ele>
        <time>2015-04-21T12:12:31Z</time>
      </trkpt>
      <trkpt lat="42.875486" lon="0.120001">
        <ele>2091.0</ele>
        <time>2015-04-21T12:12:44Z</time>
      </trkpt>
      <trkpt lat="42.875580" lon="0.119967">
        <ele>2086.5</ele>
        <time>2015-04-21T12:12:58Z</time>
      </trkpt>
      <trkpt lat="42.875646" lon="0.119914">
        <ele>2083.3</ele>
        <time>2015-04-21T12:13:38Z</time>
      </trkpt>
      <trkpt lat="42.875714" lon="0.119832">
        <ele>2079.9</ele>
        <time>2015-04-21T12:13:48Z</time>
      </trkpt>
      <trkpt lat="42.875772" lon="0.119753">
        <ele>2078.9</ele>
        <time>2015-04-21T12:14:01Z</time>
      </trkpt>
      <trkpt lat="42.875834" lon="0.119677">
        <ele>2077.8</ele>
        <time>2015-04-21T12:14:15Z</time>
      </trkpt>
      <trkpt lat="42.875891" lon="0.119582">
        <ele>2074.6</ele>
        <time>2015-04-21T12:14:31Z</time>
      </trkpt>
      <trkpt lat="42.875972" lon="0.119504">
        <ele>2073.6</ele>
        <time>2015-04-21T12:14:46Z</time>
      </trkpt>
      <trkpt lat="42.876052" lon="0.119443">
        <ele>2072.0</ele>
        <time>2015-04-21T12:15:00Z</time>
      </trkpt>
      <trkpt lat="42.876121" lon="0.119363">
        <ele>2071.4</ele>
        <time>2015-04-21T12:15:18Z</time>
      </trkpt>
      <trkpt lat="42.876172" lon="0.119274">
        <ele>2070.4</ele>
        <time>2015-04-21T12:15:41Z</time>
      </trkpt>
      <trkpt lat="42.876236" lon="0.119171">
        <ele>2070.6</ele>
        <time>2015-04-21T12:15:56Z</time>
      </trkpt>
      <trkpt lat="42.876280" lon="0.119051">
        <ele>2071.1</ele>
        <time>2015-04-21T12:16:09Z</time>
      </trkpt>
      <trkpt lat="42.876335" lon="0.118948">
        <ele>2072.0</ele>
        <time>2015-04-21T12:16:22Z</time>
      </trkpt>
      <trkpt lat="42.876379" lon="0.118833">
        <ele>2074.9</ele>
        <time>2015-04-21T12:16:40Z</time>
      </trkpt>
      <trkpt lat="42.876440" lon="0.118730">
        <ele>2074.6</ele>
        <time>2015-04-21T12:16:52Z</time>
      </trkpt>
      <trkpt lat="42.876523" lon="0.118671">
        <ele>2072.6</ele>
        <time>2015-04-21T12:17:08Z</time>
      </trkpt>
      <trkpt lat="42.876596" lon="0.118582">
        <ele>2072.4</ele>
        <time>2015-04-21T12:17:21Z</time>
      </trkpt>
      <trkpt lat="42.876649" lon="0.118503">
        <ele>2073.7</ele>
        <time>2015-04-21T12:17:32Z</time>
      </trkpt>
      <trkpt lat="42.876692" lon="0.118407">
        <ele>2074.4</ele>
        <time>2015-04-21T12:17:43Z</time>
      </trkpt>
      <trkpt lat="42.876714" lon="0.118291">
        <ele>2075.2</ele>
        <time>2015-04-21T12:17:56Z</time>
      </trkpt>
      <trkpt lat="42.876735" lon="0.118172">
        <ele>2073.7</ele>
        <time>2015-04-21T12:18:10Z</time>
      </trkpt>
      <trkpt lat="42.876742" lon="0.118059">
        <ele>2073.5</ele>
        <time>2015-04-21T12:18:23Z</time>
      </trkpt>
      <trkpt lat="42.876796" lon="0.117950">
        <ele>2074.5</ele>
        <time>2015-04-21T12:18:39Z</time>
      </trkpt>
      <trkpt lat="42.876832" lon="0.117820">
        <ele>2075.1</ele>
        <time>2015-04-21T12:18:54Z</time>
      </trkpt>
      <trkpt lat="42.876862" lon="0.117694">
        <ele>2073.2</ele>
        <time>2015-04-21T12:19:08Z</time>
      </trkpt>
      <trkpt lat="42.876883" lon="0.117567">
        <ele>2070.5</ele>
        <time>2015-04-21T12:19:22Z</time>
      </trkpt>
      <trkpt lat="42.876870" lon="0.117471">
        <ele>2067.5</ele>
        <time>2015-04-21T12:20:13Z</time>
      </trkpt>
      <trkpt lat="42.876860" lon="0.117390">
        <ele>2066.1</ele>
        <time>2015-04-21T12:22:03Z</time>
      </trkpt>
      <trkpt lat="42.876917" lon="0.117285">
        <ele>2067.4</ele>
        <time>2015-04-21T12:22:17Z</time>
      </trkpt>
      <trkpt lat="42.876968" lon="0.117166">
        <ele>2066.1</ele>
        <time>2015-04-21T12:22:30Z</time>
      </trkpt>
      <trkpt lat="42.876998" lon="0.117042">
        <ele>2065.9</ele>
        <time>2015-04-21T12:22:44Z</time>
      </trkpt>
      <trkpt lat="42.877079" lon="0.116951">
        <ele>2066.0</ele>
        <time>2015-04-21T12:22:56Z</time>
      </trkpt>
      <trkpt lat="42.877136" lon="0.116844">
        <ele>2063.8</ele>
        <time>2015-04-21T12:23:07Z</time>
      </trkpt>
      <trkpt lat="42.877190" lon="0.116742">
        <ele>2062.3</ele>
        <time>2015-04-21T12:23:18Z</time>
      </trkpt>
      <trkpt lat="42.877262" lon="0.116651">
        <ele>2061.9</ele>
        <time>2015-04-21T12:23:29Z</time>
      </trkpt>
      <trkpt lat="42.877323" lon="0.116557">
        <ele>2059.1</ele>
        <time>2015-04-21T12:23:39Z</time>
      </trkpt>
      <trkpt lat="42.877391" lon="0.116474">
        <ele>2054.9</ele>
        <time>2015-04-21T12:23:49Z</time>
      </trkpt>
      <trkpt lat="42.877471" lon="0.116399">
        <ele>2052.0</ele>
        <time>2015-04-21T12:24:01Z</time>
      </trkpt>
      <trkpt lat="42.877543" lon="0.116320">
        <ele>2051.0</ele>
        <time>2015-04-21T12:24:15Z</time>
      </trkpt>
      <trkpt lat="42.877576" lon="0.116203">
        <ele>2049.9</ele>
        <time>2015-04-21T12:24:32Z</time>
      </trkpt>
      <trkpt lat="42.877622" lon="0.116098">
        <ele>2049.1</ele>
        <time>2015-04-21T12:24:42Z</time>
      </trkpt>
      <trkpt lat="42.877617" lon="0.115995">
        <ele>2046.5</ele>
        <time>2015-04-21T12:24:53Z</time>
      </trkpt>
      <trkpt lat="42.877599" lon="0.115874">
        <ele>2046.2</ele>
        <time>2015-04-21T12:25:04Z</time>
      </trkpt>
      <trkpt lat="42.877566" lon="0.115755">
        <ele>2046.8</ele>
        <time>2015-04-21T12:25:15Z</time>
      </trkpt>
      <trkpt lat="42.877543" lon="0.115615">
        <ele>2047.6</ele>
        <time>2015-04-21T12:25:28Z</time>
      </trkpt>
      <trkpt lat="42.877514" lon="0.115498">
        <ele>2047.0</ele>
        <time>2015-04-21T12:25:38Z</time>
      </trkpt>
      <trkpt lat="42.877495" lon="0.115364">
        <ele>2046.8</ele>
        <time>2015-04-21T12:25:51Z</time>
      </trkpt>
      <trkpt lat="42.877463" lon="0.115220">
        <ele>2046.9</ele>
        <time>2015-04-21T12:26:03Z</time>
      </trkpt>
      <trkpt lat="42.877425" lon="0.115081">
        <ele>2047.8</ele>
        <time>2015-04-21T12:26:14Z</time>
      </trkpt>
      <trkpt lat="42.877395" lon="0.114947">
        <ele>2047.1</ele>
        <time>2015-04-21T12:26:27Z</time>
      </trkpt>
      <trkpt lat="42.877364" lon="0.114810">
        <ele>2046.9</ele>
        <time>2015-04-21T12:26:40Z</time>
      </trkpt>
      <trkpt lat="42.877336" lon="0.114673">
        <ele>2045.9</ele>
        <time>2015-04-21T12:26:52Z</time>
      </trkpt>
      <trkpt lat="42.877417" lon="0.114575">
        <ele>2046.5</ele>
        <time>2015-04-21T12:27:04Z</time>
      </trkpt>
      <trkpt lat="42.877473" lon="0.114473">
        <ele>2045.1</ele>
        <time>2015-04-21T12:27:15Z</time>
      </trkpt>
      <trkpt lat="42.877515" lon="0.114364">
        <ele>2044.6</ele>
        <time>2015-04-21T12:27:31Z</time>
      </trkpt>
      <trkpt lat="42.877538" lon="0.114238">
        <ele>2042.8</ele>
        <time>2015-04-21T12:27:46Z</time>
      </trkpt>
      <trkpt lat="42.877533" lon="0.114124">
        <ele>2042.2</ele>
        <time>2015-04-21T12:28:01Z</time>
      </trkpt>
      <trkpt lat="42.877531" lon="0.113974">
        <ele>2041.9</ele>
        <time>2015-04-21T12:28:16Z</time>
      </trkpt>
      <trkpt lat="42.877510" lon="0.113842">
        <ele>2042.8</ele>
        <time>2015-04-21T12:28:32Z</time>
      </trkpt>
      <trkpt lat="42.877477" lon="0.113718">
        <ele>2044.8</ele>
        <time>2015-04-21T12:28:46Z</time>
      </trkpt>
      <trkpt lat="42.877455" lon="0.113604">
        <ele>2045.3</ele>
        <time>2015-04-21T12:29:04Z</time>
      </trkpt>
      <trkpt lat="42.877414" lon="0.113480">
        <ele>2046.8</ele>
        <time>2015-04-21T12:29:23Z</time>
      </trkpt>
      <trkpt lat="42.877390" lon="0.113441">
        <ele>2047.6</ele>
        <time>2015-04-21T12:30:07Z</time>
      </trkpt>
      <trkpt lat="42.877380" lon="0.113448">
        <ele>2050.3</ele>
        <time>2015-04-21T12:30:56Z</time>
      </trkpt>
      <trkpt lat="42.877331" lon="0.113345">
        <ele>2050.9</ele>
        <time>2015-04-21T12:31:46Z</time>
      </trkpt>
      <trkpt lat="42.877289" lon="0.113225">
        <ele>2050.7</ele>
        <time>2015-04-21T12:32:00Z</time>
      </trkpt>
      <trkpt lat="42.877259" lon="0.113087">
        <ele>2050.2</ele>
        <time>2015-04-21T12:32:16Z</time>
      </trkpt>
      <trkpt lat="42.877219" lon="0.112954">
        <ele>2049.6</ele>
        <time>2015-04-21T12:32:31Z</time>
      </trkpt>
      <trkpt lat="42.877197" lon="0.112815">
        <ele>2049.9</ele>
        <time>2015-04-21T12:32:50Z</time>
      </trkpt>
      <trkpt lat="42.877170" lon="0.112717">
        <ele>2050.1</ele>
        <time>2015-04-21T12:33:57Z</time>
      </trkpt>
      <trkpt lat="42.877122" lon="0.112601">
        <ele>2048.8</ele>
        <time>2015-04-21T12:34:09Z</time>
      </trkpt>
      <trkpt lat="42.877108" lon="0.112499">
        <ele>2047.5</ele>
        <time>2015-04-21T12:35:32Z</time>
      </trkpt>
      <trkpt lat="42.877138" lon="0.112378">
        <ele>2044.6</ele>
        <time>2015-04-21T12:35:45Z</time>
      </trkpt>
      <trkpt lat="42.877179" lon="0.112267">
        <ele>2041.2</ele>
        <time>2015-04-21T12:35:55Z</time>
      </trkpt>
      <trkpt lat="42.877214" lon="0.112156">
        <ele>2037.9</ele>
        <time>2015-04-21T12:36:06Z</time>
      </trkpt>
      <trkpt lat="42.877269" lon="0.112040">
        <ele>2035.4</ele>
        <time>2015-04-21T12:36:16Z</time>
      </trkpt>
      <trkpt lat="42.877325" lon="0.111939">
        <ele>2033.2</ele>
        <time>2015-04-21T12:36:27Z</time>
      </trkpt>
      <trkpt lat="42.877372" lon="0.111900">
        <ele>2032.7</ele>
        <time>2015-04-21T12:36:46Z</time>
      </trkpt>
      <trkpt lat="42.877444" lon="0.111798">
        <ele>2029.9</ele>
        <time>2015-04-21T12:36:54Z</time>
      </trkpt>
      <trkpt lat="42.877507" lon="0.111681">
        <ele>2026.7</ele>
        <time>2015-04-21T12:37:03Z</time>
      </trkpt>
      <trkpt lat="42.877529" lon="0.111558">
        <ele>2022.9</ele>
        <time>2015-04-21T12:37:13Z</time>
      </trkpt>
      <trkpt lat="42.877548" lon="0.111445">
        <ele>2019.4</ele>
        <time>2015-04-21T12:37:24Z</time>
      </trkpt>
      <trkpt lat="42.877607" lon="0.111399">
        <ele>2015.5</ele>
        <time>2015-04-21T12:37:36Z</time>
      </trkpt>
      <trkpt lat="42.877688" lon="0.111370">
        <ele>2010.1</ele>
        <time>2015-04-21T12:37:48Z</time>
      </trkpt>
      <trkpt lat="42.877774" lon="0.111310">
        <ele>2001.6</ele>
        <time>2015-04-21T12:38:04Z</time>
      </trkpt>
      <trkpt lat="42.877866" lon="0.111237">
        <ele>1996.4</ele>
        <time>2015-04-21T12:38:21Z</time>
      </trkpt>
      <trkpt lat="42.877944" lon="0.111162">
        <ele>1991.4</ele>
        <time>2015-04-21T12:38:38Z</time>
      </trkpt>
      <trkpt lat="42.878035" lon="0.111115">
        <ele>1985.7</ele>
        <time>2015-04-21T12:38:55Z</time>
      </trkpt>
      <trkpt lat="42.878132" lon="0.111089">
        <ele>1980.7</ele>
        <time>2015-04-21T12:39:11Z</time>
      </trkpt>
      <trkpt lat="42.878225" lon="0.111062">
        <ele>1976.6</ele>
        <time>2015-04-21T12:39:25Z</time>
      </trkpt>
      <trkpt lat="42.878323" lon="0.111048">
        <ele>1974.2</ele>
        <time>2015-04-21T12:39:44Z</time>
      </trkpt>
      <trkpt lat="42.878416" lon="0.111037">
        <ele>1970.1</ele>
        <time>2015-04-21T12:40:01Z</time>
      </trkpt>
      <trkpt lat="42.878519" lon="0.111011">
        <ele>1962.2</ele>
        <time>2015-04-21T12:40:16Z</time>
      </trkpt>
      <trkpt lat="42.878604" lon="0.110945">
        <ele>1954.9</ele>
        <time>2015-04-21T12:40:32Z</time>
      </trkpt>
      <trkpt lat="42.878687" lon="0.110883">
        <ele>1950.5</ele>
        <time>2015-04-21T12:40:45Z</time>
      </trkpt>
      <trkpt lat="42.878777" lon="0.110888">
        <ele>1948.5</ele>
        <time>2015-04-21T12:41:04Z</time>
      </trkpt>
      <trkpt lat="42.878875" lon="0.110857">
        <ele>1946.2</ele>
        <time>2015-04-21T12:41:19Z</time>
      </trkpt>
      <trkpt lat="42.878955" lon="0.110821">
        <ele>1942.4</ele>
        <time>2015-04-21T12:41:34Z</time>
      </trkpt>
      <trkpt lat="42.879037" lon="0.110782">
        <ele>1937.0</ele>
        <time>2015-04-21T12:41:50Z</time>
      </trkpt>
      <trkpt lat="42.879127" lon="0.110812">
        <ele>1929.8</ele>
        <time>2015-04-21T12:42:07Z</time>
      </trkpt>
      <trkpt lat="42.879215" lon="0.110867">
        <ele>1925.0</ele>
        <time>2015-04-21T12:42:17Z</time>
      </trkpt>
      <trkpt lat="42.879290" lon="0.110925">
        <ele>1918.2</ele>
        <time>2015-04-21T12:42:26Z</time>
      </trkpt>
      <trkpt lat="42.879382" lon="0.110961">
        <ele>1914.6</ele>
        <time>2015-04-21T12:42:41Z</time>
      </trkpt>
      <trkpt lat="42.879479" lon="0.110984">
        <ele>1909.2</ele>
        <time>2015-04-21T12:42:51Z</time>
      </trkpt>
      <trkpt lat="42.879581" lon="0.110990">
        <ele>1901.8</ele>
        <time>2015-04-21T12:43:01Z</time>
      </trkpt>
      <trkpt lat="42.879700" lon="0.110989">
        <ele>1898.2</ele>
        <time>2015-04-21T12:43:11Z</time>
      </trkpt>
      <trkpt lat="42.879793" lon="0.110982">
        <ele>1894.7</ele>
        <time>2015-04-21T12:43:20Z</time>
      </trkpt>
      <trkpt lat="42.879883" lon="0.110995">
        <ele>1889.9</ele>
        <time>2015-04-21T12:43:34Z</time>
      </trkpt>
      <trkpt lat="42.879962" lon="0.111030">
        <ele>1884.0</ele>
        <time>2015-04-21T12:43:43Z</time>
      </trkpt>
      <trkpt lat="42.880054" lon="0.111053">
        <ele>1878.5</ele>
        <time>2015-04-21T12:43:54Z</time>
      </trkpt>
      <trkpt lat="42.880170" lon="0.111077">
        <ele>1874.0</ele>
        <time>2015-04-21T12:44:07Z</time>
      </trkpt>
      <trkpt lat="42.880250" lon="0.111116">
        <ele>1871.9</ele>
        <time>2015-04-21T12:44:18Z</time>
      </trkpt>
      <trkpt lat="42.880375" lon="0.111088">
        <ele>1867.6</ele>
        <time>2015-04-21T12:49:36Z</time>
      </trkpt>
      <trkpt lat="42.880482" lon="0.111040">
        <ele>1864.4</ele>
        <time>2015-04-21T12:49:48Z</time>
      </trkpt>
      <trkpt lat="42.880579" lon="0.111091">
        <ele>1857.8</ele>
        <time>2015-04-21T12:49:59Z</time>
      </trkpt>
      <trkpt lat="42.880671" lon="0.111132">
        <ele>1851.5</ele>
        <time>2015-04-21T12:50:09Z</time>
      </trkpt>
      <trkpt lat="42.880756" lon="0.111190">
        <ele>1844.6</ele>
        <time>2015-04-21T12:50:19Z</time>
      </trkpt>
      <trkpt lat="42.880787" lon="0.111246">
        <ele>1842.6</ele>
        <time>2015-04-21T12:50:56Z</time>
      </trkpt>
      <trkpt lat="42.880835" lon="0.111360">
        <ele>1840.2</ele>
        <time>2015-04-21T12:51:08Z</time>
      </trkpt>
      <trkpt lat="42.880861" lon="0.111455">
        <ele>1835.1</ele>
        <time>2015-04-21T12:51:26Z</time>
      </trkpt>
      <trkpt lat="42.880915" lon="0.111560">
        <ele>1831.1</ele>
        <time>2015-04-21T12:51:34Z</time>
      </trkpt>
      <trkpt lat="42.880933" lon="0.111658">
        <ele>1824.4</ele>
        <time>2015-04-21T12:51:49Z</time>
      </trkpt>
      <trkpt lat="42.880985" lon="0.111762">
        <ele>1818.9</ele>
        <time>2015-04-21T12:52:02Z</time>
      </trkpt>
      <trkpt lat="42.881034" lon="0.111889">
        <ele>1813.0</ele>
        <time>2015-04-21T12:52:17Z</time>
      </trkpt>
      <trkpt lat="42.881118" lon="0.111936">
        <ele>1807.8</ele>
        <time>2015-04-21T12:52:34Z</time>
      </trkpt>
      <trkpt lat="42.881219" lon="0.111925">
        <ele>1802.6</ele>
        <time>2015-04-21T12:52:51Z</time>
      </trkpt>
      <trkpt lat="42.881325" lon="0.111864">
        <ele>1797.3</ele>
        <time>2015-04-21T12:53:06Z</time>
      </trkpt>
      <trkpt lat="42.881419" lon="0.111893">
        <ele>1792.4</ele>
        <time>2015-04-21T12:53:18Z</time>
      </trkpt>
      <trkpt lat="42.881534" lon="0.111856">
        <ele>1788.0</ele>
        <time>2015-04-21T12:53:29Z</time>
      </trkpt>
      <trkpt lat="42.881629" lon="0.111843">
        <ele>1785.4</ele>
        <time>2015-04-21T12:53:41Z</time>
      </trkpt>
      <trkpt lat="42.881721" lon="0.111881">
        <ele>1781.1</ele>
        <time>2015-04-21T12:53:52Z</time>
      </trkpt>
      <trkpt lat="42.881818" lon="0.111916">
        <ele>1774.3</ele>
        <time>2015-04-21T12:54:07Z</time>
      </trkpt>
      <trkpt lat="42.881906" lon="0.112008">
        <ele>1768.5</ele>
        <time>2015-04-21T12:54:21Z</time>
      </trkpt>
      <trkpt lat="42.881928" lon="0.112111">
        <ele>1764.8</ele>
        <time>2015-04-21T12:54:51Z</time>
      </trkpt>
      <trkpt lat="42.881915" lon="0.112109">
        <ele>1763.1</ele>
        <time>2015-04-21T12:56:53Z</time>
      </trkpt>
      <trkpt lat="42.882041" lon="0.112121">
        <ele>1763.0</ele>
        <time>2015-04-21T12:57:05Z</time>
      </trkpt>
      <trkpt lat="42.882140" lon="0.112153">
        <ele>1761.3</ele>
        <time>2015-04-21T12:57:15Z</time>
      </trkpt>
      <trkpt lat="42.882240" lon="0.112197">
        <ele>1760.9</ele>
        <time>2015-04-21T12:57:26Z</time>
      </trkpt>
      <trkpt lat="42.882337" lon="0.112215">
        <ele>1759.3</ele>
        <time>2015-04-21T12:57:36Z</time>
      </trkpt>
      <trkpt lat="42.882443" lon="0.112202">
        <ele>1757.6</ele>
        <time>2015-04-21T12:57:46Z</time>
      </trkpt>
      <trkpt lat="42.882542" lon="0.112179">
        <ele>1756.7</ele>
        <time>2015-04-21T12:57:59Z</time>
      </trkpt>
      <trkpt lat="42.882641" lon="0.112163">
        <ele>1755.9</ele>
        <time>2015-04-21T12:58:10Z</time>
      </trkpt>
      <trkpt lat="42.882749" lon="0.112163">
        <ele>1752.9</ele>
        <time>2015-04-21T12:58:22Z</time>
      </trkpt>
      <trkpt lat="42.882861" lon="0.112154">
        <ele>1752.1</ele>
        <time>2015-04-21T12:58:32Z</time>
      </trkpt>
      <trkpt lat="42.882920" lon="0.112050">
        <ele>1750.6</ele>
        <time>2015-04-21T12:58:43Z</time>
      </trkpt>
      <trkpt lat="42.883007" lon="0.111996">
        <ele>1750.3</ele>
        <time>2015-04-21T12:58:54Z</time>
      </trkpt>
      <trkpt lat="42.883090" lon="0.111944">
        <ele>1747.5</ele>
        <time>2015-04-21T12:59:05Z</time>
      </trkpt>
      <trkpt lat="42.883175" lon="0.111913">
        <ele>1747.9</ele>
        <time>2015-04-21T12:59:17Z</time>
      </trkpt>
      <trkpt lat="42.883249" lon="0.111869">
        <ele>1748.1</ele>
        <time>2015-04-21T12:59:29Z</time>
      </trkpt>
      <trkpt lat="42.883327" lon="0.111806">
        <ele>1747.7</ele>
        <time>2015-04-21T12:59:42Z</time>
      </trkpt>
      <trkpt lat="42.883415" lon="0.111751">
        <ele>1748.2</ele>
        <time>2015-04-21T12:59:54Z</time>
      </trkpt>
      <trkpt lat="42.883524" lon="0.111723">
        <ele>1748.2</ele>
        <time>2015-04-21T13:00:07Z</time>
      </trkpt>
      <trkpt lat="42.883613" lon="0.111661">
        <ele>1747.5</ele>
        <time>2015-04-21T13:00:20Z</time>
      </trkpt>
      <trkpt lat="42.883699" lon="0.111617">
        <ele>1745.4</ele>
        <time>2015-04-21T13:00:32Z</time>
      </trkpt>
      <trkpt lat="42.883795" lon="0.111581">
        <ele>1742.0</ele>
        <time>2015-04-21T13:00:47Z</time>
      </trkpt>
      <trkpt lat="42.883858" lon="0.111493">
        <ele>1742.4</ele>
        <time>2015-04-21T13:00:58Z</time>
      </trkpt>
      <trkpt lat="42.883925" lon="0.111408">
        <ele>1742.4</ele>
        <time>2015-04-21T13:01:10Z</time>
      </trkpt>
      <trkpt lat="42.883984" lon="0.111284">
        <ele>1743.0</ele>
        <time>2015-04-21T13:01:24Z</time>
      </trkpt>
      <trkpt lat="42.884033" lon="0.111185">
        <ele>1740.8</ele>
        <time>2015-04-21T13:01:35Z</time>
      </trkpt>
      <trkpt lat="42.884110" lon="0.111120">
        <ele>1737.7</ele>
        <time>2015-04-21T13:01:46Z</time>
      </trkpt>
      <trkpt lat="42.884155" lon="0.111002">
        <ele>1734.2</ele>
        <time>2015-04-21T13:02:01Z</time>
      </trkpt>
      <trkpt lat="42.884226" lon="0.110916">
        <ele>1731.7</ele>
        <time>2015-04-21T13:02:14Z</time>
      </trkpt>
      <trkpt lat="42.884318" lon="0.110836">
        <ele>1730.2</ele>
        <time>2015-04-21T13:02:26Z</time>
      </trkpt>
      <trkpt lat="42.884371" lon="0.110697">
        <ele>1729.0</ele>
        <time>2015-04-21T13:02:37Z</time>
      </trkpt>
      <trkpt lat="42.884441" lon="0.110598">
        <ele>1729.7</ele>
        <time>2015-04-21T13:02:49Z</time>
      </trkpt>
      <trkpt lat="42.884517" lon="0.110504">
        <ele>1729.4</ele>
        <time>2015-04-21T13:03:02Z</time>
      </trkpt>
      <trkpt lat="42.884597" lon="0.110417">
        <ele>1729.0</ele>
        <time>2015-04-21T13:03:13Z</time>
      </trkpt>
      <trkpt lat="42.884631" lon="0.110298">
        <ele>1728.3</ele>
        <time>2015-04-21T13:03:24Z</time>
      </trkpt>
      <trkpt lat="42.884626" lon="0.110152">
        <ele>1728.3</ele>
        <time>2015-04-21T13:03:35Z</time>
      </trkpt>
      <trkpt lat="42.884647" lon="0.110018">
        <ele>1728.8</ele>
        <time>2015-04-21T13:03:45Z</time>
      </trkpt>
      <trkpt lat="42.884716" lon="0.109941">
        <ele>1728.5</ele>
        <time>2015-04-21T13:03:55Z</time>
      </trkpt>
      <trkpt lat="42.884777" lon="0.109897">
        <ele>1728.0</ele>
        <time>2015-04-21T13:04:12Z</time>
      </trkpt>
      <trkpt lat="42.884853" lon="0.109803">
        <ele>1728.7</ele>
        <time>2015-04-21T13:04:28Z</time>
      </trkpt>
      <trkpt lat="42.884913" lon="0.109704">
        <ele>1728.1</ele>
        <time>2015-04-21T13:04:39Z</time>
      </trkpt>
      <trkpt lat="42.884989" lon="0.109593">
        <ele>1727.3</ele>
        <time>2015-04-21T13:04:51Z</time>
      </trkpt>
      <trkpt lat="42.885003" lon="0.109481">
        <ele>1726.7</ele>
        <time>2015-04-21T13:05:04Z</time>
      </trkpt>
      <trkpt lat="42.884982" lon="0.109346">
        <ele>1725.3</ele>
        <time>2015-04-21T13:05:18Z</time>
      </trkpt>
      <trkpt lat="42.884989" lon="0.109216">
        <ele>1725.3</ele>
        <time>2015-04-21T13:05:30Z</time>
      </trkpt>
      <trkpt lat="42.885039" lon="0.109113">
        <ele>1724.8</ele>
        <time>2015-04-21T13:05:41Z</time>
      </trkpt>
      <trkpt lat="42.885110" lon="0.108999">
        <ele>1724.7</ele>
        <time>2015-04-21T13:05:54Z</time>
      </trkpt>
      <trkpt lat="42.885162" lon="0.108878">
        <ele>1723.8</ele>
        <time>2015-04-21T13:06:05Z</time>
      </trkpt>
      <trkpt lat="42.885192" lon="0.108759">
        <ele>1722.7</ele>
        <time>2015-04-21T13:06:16Z</time>
      </trkpt>
      <trkpt lat="42.885239" lon="0.108654">
        <ele>1721.6</ele>
        <time>2015-04-21T13:06:28Z</time>
      </trkpt>
      <trkpt lat="42.885297" lon="0.108529">
        <ele>1719.8</ele>
        <time>2015-04-21T13:06:40Z</time>
      </trkpt>
      <trkpt lat="42.885392" lon="0.108447">
        <ele>1718.2</ele>
        <time>2015-04-21T13:06:51Z</time>
      </trkpt>
      <trkpt lat="42.885462" lon="0.108351">
        <ele>1716.7</ele>
        <time>2015-04-21T13:07:04Z</time>
      </trkpt>
      <trkpt lat="42.885526" lon="0.108262">
        <ele>1715.5</ele>
        <time>2015-04-21T13:07:15Z</time>
      </trkpt>
      <trkpt lat="42.885608" lon="0.108194">
        <ele>1714.7</ele>
        <time>2015-04-21T13:07:26Z</time>
      </trkpt>
      <trkpt lat="42.885685" lon="0.108119">
        <ele>1713.6</ele>
        <time>2015-04-21T13:07:39Z</time>
      </trkpt>
      <trkpt lat="42.885874" lon="0.107907">
        <ele>1713.0</ele>
        <time>2015-04-21T13:08:13Z</time>
      </trkpt>
      <trkpt lat="42.886022" lon="0.107819">
        <ele>1711.2</ele>
        <time>2015-04-21T13:08:35Z</time>
      </trkpt>
      <trkpt lat="42.886091" lon="0.107802">
        <ele>1709.8</ele>
        <time>2015-04-21T13:08:46Z</time>
      </trkpt>
      <trkpt lat="42.886192" lon="0.107765">
        <ele>1707.9</ele>
        <time>2015-04-21T13:08:57Z</time>
      </trkpt>
      <trkpt lat="42.886283" lon="0.107691">
        <ele>1705.8</ele>
        <time>2015-04-21T13:09:08Z</time>
      </trkpt>
      <trkpt lat="42.886366" lon="0.107613">
        <ele>1703.5</ele>
        <time>2015-04-21T13:09:19Z</time>
      </trkpt>
      <trkpt lat="42.886460" lon="0.107576">
        <ele>1701.9</ele>
        <time>2015-04-21T13:09:29Z</time>
      </trkpt>
      <trkpt lat="42.886537" lon="0.107536">
        <ele>1699.5</ele>
        <time>2015-04-21T13:09:41Z</time>
      </trkpt>
      <trkpt lat="42.886633" lon="0.107527">
        <ele>1698.7</ele>
        <time>2015-04-21T13:09:52Z</time>
      </trkpt>
      <trkpt lat="42.886740" lon="0.107580">
        <ele>1697.3</ele>
        <time>2015-04-21T13:10:02Z</time>
      </trkpt>
      <trkpt lat="42.886829" lon="0.107641">
        <ele>1695.7</ele>
        <time>2015-04-21T13:10:11Z</time>
      </trkpt>
      <trkpt lat="42.886930" lon="0.107672">
        <ele>1692.0</ele>
        <time>2015-04-21T13:10:21Z</time>
      </trkpt>
      <trkpt lat="42.887020" lon="0.107694">
        <ele>1687.5</ele>
        <time>2015-04-21T13:10:31Z</time>
      </trkpt>
      <trkpt lat="42.887079" lon="0.107710">
        <ele>1682.3</ele>
        <time>2015-04-21T13:10:39Z</time>
      </trkpt>
      <trkpt lat="42.887175" lon="0.107722">
        <ele>1676.3</ele>
        <time>2015-04-21T13:10:49Z</time>
      </trkpt>
      <trkpt lat="42.887264" lon="0.107739">
        <ele>1671.9</ele>
        <time>2015-04-21T13:11:00Z</time>
      </trkpt>
      <trkpt lat="42.887370" lon="0.107764">
        <ele>1668.1</ele>
        <time>2015-04-21T13:11:11Z</time>
      </trkpt>
      <trkpt lat="42.887475" lon="0.107802">
        <ele>1664.8</ele>
        <time>2015-04-21T13:11:21Z</time>
      </trkpt>
      <trkpt lat="42.887573" lon="0.107813">
        <ele>1663.6</ele>
        <time>2015-04-21T13:11:31Z</time>
      </trkpt>
      <trkpt lat="42.887659" lon="0.107753">
        <ele>1661.5</ele>
        <time>2015-04-21T13:11:42Z</time>
      </trkpt>
      <trkpt lat="42.887736" lon="0.107710">
        <ele>1659.5</ele>
        <time>2015-04-21T13:11:51Z</time>
      </trkpt>
      <trkpt lat="42.887838" lon="0.107695">
        <ele>1659.1</ele>
        <time>2015-04-21T13:12:03Z</time>
      </trkpt>
      <trkpt lat="42.887940" lon="0.107662">
        <ele>1658.2</ele>
        <time>2015-04-21T13:12:14Z</time>
      </trkpt>
      <trkpt lat="42.888013" lon="0.107605">
        <ele>1657.6</ele>
        <time>2015-04-21T13:12:24Z</time>
      </trkpt>
      <trkpt lat="42.888076" lon="0.107483">
        <ele>1657.0</ele>
        <time>2015-04-21T13:12:36Z</time>
      </trkpt>
      <trkpt lat="42.888137" lon="0.107364">
        <ele>1656.0</ele>
        <time>2015-04-21T13:12:47Z</time>
      </trkpt>
      <trkpt lat="42.888197" lon="0.107271">
        <ele>1656.2</ele>
        <time>2015-04-21T13:12:58Z</time>
      </trkpt>
      <trkpt lat="42.888264" lon="0.107185">
        <ele>1655.9</ele>
        <time>2015-04-21T13:13:08Z</time>
      </trkpt>
      <trkpt lat="42.888299" lon="0.107062">
        <ele>1657.1</ele>
        <time>2015-04-21T13:13:20Z</time>
      </trkpt>
      <trkpt lat="42.888300" lon="0.106942">
        <ele>1658.1</ele>
        <time>2015-04-21T13:13:35Z</time>
      </trkpt>
      <trkpt lat="42.888346" lon="0.106837">
        <ele>1659.3</ele>
        <time>2015-04-21T13:13:50Z</time>
      </trkpt>
      <trkpt lat="42.888449" lon="0.106845">
        <ele>1659.5</ele>
        <time>2015-04-21T13:14:04Z</time>
      </trkpt>
      <trkpt lat="42.888558" lon="0.106878">
        <ele>1658.9</ele>
        <time>2015-04-21T13:14:17Z</time>
      </trkpt>
      <trkpt lat="42.888663" lon="0.106887">
        <ele>1658.3</ele>
        <time>2015-04-21T13:14:28Z</time>
      </trkpt>
      <trkpt lat="42.888764" lon="0.106887">
        <ele>1656.2</ele>
        <time>2015-04-21T13:14:41Z</time>
      </trkpt>
      <trkpt lat="42.888866" lon="0.106900">
        <ele>1653.0</ele>
        <time>2015-04-21T13:14:53Z</time>
      </trkpt>
      <trkpt lat="42.888959" lon="0.106903">
        <ele>1648.4</ele>
        <time>2015-04-21T13:15:05Z</time>
      </trkpt>
      <trkpt lat="42.889043" lon="0.106920">
        <ele>1645.9</ele>
        <time>2015-04-21T13:15:18Z</time>
      </trkpt>
      <trkpt lat="42.889127" lon="0.106924">
        <ele>1643.7</ele>
        <time>2015-04-21T13:15:32Z</time>
      </trkpt>
      <trkpt lat="42.889215" lon="0.106875">
        <ele>1642.3</ele>
        <time>2015-04-21T13:15:53Z</time>
      </trkpt>
      <trkpt lat="42.889292" lon="0.106801">
        <ele>1642.9</ele>
        <time>2015-04-21T13:16:04Z</time>
      </trkpt>
      <trkpt lat="42.889372" lon="0.106749">
        <ele>1644.3</ele>
        <time>2015-04-21T13:16:15Z</time>
      </trkpt>
      <trkpt lat="42.889469" lon="0.106700">
        <ele>1646.0</ele>
        <time>2015-04-21T13:16:25Z</time>
      </trkpt>
      <trkpt lat="42.889538" lon="0.106639">
        <ele>1645.0</ele>
        <time>2015-04-21T13:16:35Z</time>
      </trkpt>
      <trkpt lat="42.889625" lon="0.106590">
        <ele>1642.7</ele>
        <time>2015-04-21T13:16:46Z</time>
      </trkpt>
      <trkpt lat="42.889691" lon="0.106522">
        <ele>1639.3</ele>
        <time>2015-04-21T13:16:56Z</time>
      </trkpt>
      <trkpt lat="42.889773" lon="0.106504">
        <ele>1636.4</ele>
        <time>2015-04-21T13:17:10Z</time>
      </trkpt>
      <trkpt lat="42.889882" lon="0.106499">
        <ele>1633.7</ele>
        <time>2015-04-21T13:17:25Z</time>
      </trkpt>
      <trkpt lat="42.889979" lon="0.106550">
        <ele>1630.9</ele>
        <time>2015-04-21T13:17:39Z</time>
      </trkpt>
      <trkpt lat="42.890053" lon="0.106610">
        <ele>1628.8</ele>
        <time>2015-04-21T13:17:51Z</time>
      </trkpt>
      <trkpt lat="42.890148" lon="0.106666">
        <ele>1627.4</ele>
        <time>2015-04-21T13:18:04Z</time>
      </trkpt>
      <trkpt lat="42.890258" lon="0.106698">
        <ele>1627.2</ele>
        <time>2015-04-21T13:18:15Z</time>
      </trkpt>
      <trkpt lat="42.890344" lon="0.106690">
        <ele>1627.0</ele>
        <time>2015-04-21T13:18:26Z</time>
      </trkpt>
      <trkpt lat="42.890432" lon="0.106613">
        <ele>1627.4</ele>
        <time>2015-04-21T13:18:37Z</time>
      </trkpt>
      <trkpt lat="42.890521" lon="0.106554">
        <ele>1627.1</ele>
        <time>2015-04-21T13:18:49Z</time>
      </trkpt>
      <trkpt lat="42.890618" lon="0.106506">
        <ele>1626.9</ele>
        <time>2015-04-21T13:19:01Z</time>
      </trkpt>
      <trkpt lat="42.890682" lon="0.106415">
        <ele>1625.7</ele>
        <time>2015-04-21T13:19:11Z</time>
      </trkpt>
      <trkpt lat="42.890755" lon="0.106360">
        <ele>1624.0</ele>
        <time>2015-04-21T13:19:24Z</time>
      </trkpt>
      <trkpt lat="42.890847" lon="0.106312">
        <ele>1622.1</ele>
        <time>2015-04-21T13:19:35Z</time>
      </trkpt>
      <trkpt lat="42.890947" lon="0.106270">
        <ele>1621.5</ele>
        <time>2015-04-21T13:19:47Z</time>
      </trkpt>
      <trkpt lat="42.891026" lon="0.106202">
        <ele>1620.0</ele>
        <time>2015-04-21T13:19:57Z</time>
      </trkpt>
      <trkpt lat="42.891136" lon="0.106159">
        <ele>1619.6</ele>
        <time>2015-04-21T13:20:11Z</time>
      </trkpt>
      <trkpt lat="42.891230" lon="0.106129">
        <ele>1619.5</ele>
        <time>2015-04-21T13:20:22Z</time>
      </trkpt>
      <trkpt lat="42.891323" lon="0.106114">
        <ele>1619.1</ele>
        <time>2015-04-21T13:20:34Z</time>
      </trkpt>
      <trkpt lat="42.891418" lon="0.106100">
        <ele>1620.2</ele>
        <time>2015-04-21T13:20:44Z</time>
      </trkpt>
      <trkpt lat="42.891502" lon="0.106060">
        <ele>1619.8</ele>
        <time>2015-04-21T13:20:56Z</time>
      </trkpt>
      <trkpt lat="42.891564" lon="0.105971">
        <ele>1618.9</ele>
        <time>2015-04-21T13:21:06Z</time>
      </trkpt>
      <trkpt lat="42.891651" lon="0.105927">
        <ele>1618.2</ele>
        <time>2015-04-21T13:21:19Z</time>
      </trkpt>
      <trkpt lat="42.891752" lon="0.105886">
        <ele>1617.0</ele>
        <time>2015-04-21T13:21:33Z</time>
      </trkpt>
      <trkpt lat="42.891843" lon="0.105829">
        <ele>1615.4</ele>
        <time>2015-04-21T13:21:45Z</time>
      </trkpt>
      <trkpt lat="42.891933" lon="0.105762">
        <ele>1612.0</ele>
        <time>2015-04-21T13:21:58Z</time>
      </trkpt>
      <trkpt lat="42.892022" lon="0.105703">
        <ele>1609.2</ele>
        <time>2015-04-21T13:22:13Z</time>
      </trkpt>
      <trkpt lat="42.892111" lon="0.105722">
        <ele>1606.3</ele>
        <time>2015-04-21T13:22:25Z</time>
      </trkpt>
      <trkpt lat="42.892203" lon="0.105680">
        <ele>1604.5</ele>
        <time>2015-04-21T13:22:37Z</time>
      </trkpt>
      <trkpt lat="42.892292" lon="0.105617">
        <ele>1602.4</ele>
        <time>2015-04-21T13:22:49Z</time>
      </trkpt>
      <trkpt lat="42.892369" lon="0.105551">
        <ele>1601.0</ele>
        <time>2015-04-21T13:22:58Z</time>
      </trkpt>
      <trkpt lat="42.892450" lon="0.105475">
        <ele>1599.4</ele>
        <time>2015-04-21T13:23:10Z</time>
      </trkpt>
      <trkpt lat="42.892527" lon="0.105401">
        <ele>1598.7</ele>
        <time>2015-04-21T13:23:22Z</time>
      </trkpt>
      <trkpt lat="42.892621" lon="0.105340">
        <ele>1597.9</ele>
        <time>2015-04-21T13:23:34Z</time>
      </trkpt>
      <trkpt lat="42.892721" lon="0.105295">
        <ele>1595.9</ele>
        <time>2015-04-21T13:23:47Z</time>
      </trkpt>
      <trkpt lat="42.892831" lon="0.105283">
        <ele>1593.7</ele>
        <time>2015-04-21T13:24:00Z</time>
      </trkpt>
      <trkpt lat="42.892928" lon="0.105232">
        <ele>1591.4</ele>
        <time>2015-04-21T13:24:14Z</time>
      </trkpt>
      <trkpt lat="42.893064" lon="0.105203">
        <ele>1589.4</ele>
        <time>2015-04-21T13:24:26Z</time>
      </trkpt>
      <trkpt lat="42.893152" lon="0.105156">
        <ele>1588.0</ele>
        <time>2015-04-21T13:24:38Z</time>
      </trkpt>
      <trkpt lat="42.893249" lon="0.105104">
        <ele>1587.5</ele>
        <time>2015-04-21T13:24:51Z</time>
      </trkpt>
      <trkpt lat="42.893345" lon="0.105094">
        <ele>1586.2</ele>
        <time>2015-04-21T13:25:03Z</time>
      </trkpt>
      <trkpt lat="42.893437" lon="0.105046">
        <ele>1585.4</ele>
        <time>2015-04-21T13:25:26Z</time>
      </trkpt>
      <trkpt lat="42.893551" lon="0.105005">
        <ele>1584.4</ele>
        <time>2015-04-21T13:25:38Z</time>
      </trkpt>
      <trkpt lat="42.893657" lon="0.104985">
        <ele>1583.0</ele>
        <time>2015-04-21T13:25:49Z</time>
      </trkpt>
      <trkpt lat="42.893760" lon="0.104972">
        <ele>1579.8</ele>
        <time>2015-04-21T13:25:59Z</time>
      </trkpt>
      <trkpt lat="42.893852" lon="0.104975">
        <ele>1575.8</ele>
        <time>2015-04-21T13:26:07Z</time>
      </trkpt>
      <trkpt lat="42.893956" lon="0.104989">
        <ele>1571.3</ele>
        <time>2015-04-21T13:26:18Z</time>
      </trkpt>
      <trkpt lat="42.894040" lon="0.105005">
        <ele>1567.6</ele>
        <time>2015-04-21T13:26:26Z</time>
      </trkpt>
      <trkpt lat="42.894135" lon="0.104977">
        <ele>1563.6</ele>
        <time>2015-04-21T13:26:36Z</time>
      </trkpt>
      <trkpt lat="42.894226" lon="0.104986">
        <ele>1560.6</ele>
        <time>2015-04-21T13:26:44Z</time>
      </trkpt>
      <trkpt lat="42.894330" lon="0.105019">
        <ele>1556.2</ele>
        <time>2015-04-21T13:26:53Z</time>
      </trkpt>
      <trkpt lat="42.894429" lon="0.105070">
        <ele>1551.2</ele>
        <time>2015-04-21T13:27:02Z</time>
      </trkpt>
      <trkpt lat="42.894516" lon="0.105158">
        <ele>1547.0</ele>
        <time>2015-04-21T13:27:12Z</time>
      </trkpt>
      <trkpt lat="42.894619" lon="0.105177">
        <ele>1541.0</ele>
        <time>2015-04-21T13:27:28Z</time>
      </trkpt>
      <trkpt lat="42.894668" lon="0.105243">
        <ele>1539.6</ele>
        <time>2015-04-21T13:27:45Z</time>
      </trkpt>
      <trkpt lat="42.894695" lon="0.105265">
        <ele>1541.5</ele>
        <time>2015-04-21T13:28:12Z</time>
      </trkpt>
      <trkpt lat="42.894778" lon="0.105271">
        <ele>1542.2</ele>
        <time>2015-04-21T13:28:31Z</time>
      </trkpt>
      <trkpt lat="42.894884" lon="0.105260">
        <ele>1543.0</ele>
        <time>2015-04-21T13:28:41Z</time>
      </trkpt>
      <trkpt lat="42.894986" lon="0.105237">
        <ele>1543.2</ele>
        <time>2015-04-21T13:28:51Z</time>
      </trkpt>
      <trkpt lat="42.895082" lon="0.105188">
        <ele>1541.4</ele>
        <time>2015-04-21T13:29:00Z</time>
      </trkpt>
      <trkpt lat="42.895171" lon="0.105156">
        <ele>1539.2</ele>
        <time>2015-04-21T13:29:09Z</time>
      </trkpt>
      <trkpt lat="42.895278" lon="0.105115">
        <ele>1536.6</ele>
        <time>2015-04-21T13:29:20Z</time>
      </trkpt>
      <trkpt lat="42.895384" lon="0.105036">
        <ele>1535.0</ele>
        <time>2015-04-21T13:29:29Z</time>
      </trkpt>
      <trkpt lat="42.895415" lon="0.104925">
        <ele>1534.6</ele>
        <time>2015-04-21T13:29:38Z</time>
      </trkpt>
      <trkpt lat="42.895443" lon="0.104797">
        <ele>1533.1</ele>
        <time>2015-04-21T13:29:47Z</time>
      </trkpt>
      <trkpt lat="42.895482" lon="0.104673">
        <ele>1532.7</ele>
        <time>2015-04-21T13:29:55Z</time>
      </trkpt>
      <trkpt lat="42.895546" lon="0.104577">
        <ele>1533.7</ele>
        <time>2015-04-21T13:30:03Z</time>
      </trkpt>
      <trkpt lat="42.895650" lon="0.104576">
        <ele>1533.3</ele>
        <time>2015-04-21T13:30:12Z</time>
      </trkpt>
      <trkpt lat="42.895742" lon="0.104630">
        <ele>1532.0</ele>
        <time>2015-04-21T13:30:20Z</time>
      </trkpt>
      <trkpt lat="42.895833" lon="0.104680">
        <ele>1530.4</ele>
        <time>2015-04-21T13:30:29Z</time>
      </trkpt>
      <trkpt lat="42.895934" lon="0.104723">
        <ele>1529.2</ele>
        <time>2015-04-21T13:30:37Z</time>
      </trkpt>
      <trkpt lat="42.896033" lon="0.104742">
        <ele>1528.4</ele>
        <time>2015-04-21T13:30:47Z</time>
      </trkpt>
      <trkpt lat="42.896115" lon="0.104748">
        <ele>1528.1</ele>
        <time>2015-04-21T13:30:56Z</time>
      </trkpt>
      <trkpt lat="42.896220" lon="0.104801">
        <ele>1526.7</ele>
        <time>2015-04-21T13:31:07Z</time>
      </trkpt>
      <trkpt lat="42.896314" lon="0.104834">
        <ele>1524.6</ele>
        <time>2015-04-21T13:31:16Z</time>
      </trkpt>
      <trkpt lat="42.896395" lon="0.104859">
        <ele>1524.6</ele>
        <time>2015-04-21T13:31:26Z</time>
      </trkpt>
      <trkpt lat="42.896486" lon="0.104873">
        <ele>1523.9</ele>
        <time>2015-04-21T13:31:36Z</time>
      </trkpt>
      <trkpt lat="42.896574" lon="0.104943">
        <ele>1522.6</ele>
        <time>2015-04-21T13:31:44Z</time>
      </trkpt>
      <trkpt lat="42.896664" lon="0.104989">
        <ele>1519.9</ele>
        <time>2015-04-21T13:31:53Z</time>
      </trkpt>
      <trkpt lat="42.896759" lon="0.105003">
        <ele>1517.0</ele>
        <time>2015-04-21T13:32:03Z</time>
      </trkpt>
      <trkpt lat="42.896871" lon="0.104986">
        <ele>1512.6</ele>
        <time>2015-04-21T13:32:14Z</time>
      </trkpt>
      <trkpt lat="42.896961" lon="0.105010">
        <ele>1509.0</ele>
        <time>2015-04-21T13:32:25Z</time>
      </trkpt>
      <trkpt lat="42.897060" lon="0.104974">
        <ele>1506.2</ele>
        <time>2015-04-21T13:32:36Z</time>
      </trkpt>
      <trkpt lat="42.897160" lon="0.104933">
        <ele>1504.4</ele>
        <time>2015-04-21T13:32:47Z</time>
      </trkpt>
      <trkpt lat="42.897262" lon="0.104907">
        <ele>1502.7</ele>
        <time>2015-04-21T13:32:58Z</time>
      </trkpt>
      <trkpt lat="42.897374" lon="0.104900">
        <ele>1503.0</ele>
        <time>2015-04-21T13:33:08Z</time>
      </trkpt>
      <trkpt lat="42.897484" lon="0.104897">
        <ele>1505.1</ele>
        <time>2015-04-21T13:33:17Z</time>
      </trkpt>
      <trkpt lat="42.897579" lon="0.104915">
        <ele>1506.9</ele>
        <time>2015-04-21T13:33:25Z</time>
      </trkpt>
      <trkpt lat="42.897666" lon="0.104935">
        <ele>1508.7</ele>
        <time>2015-04-21T13:33:33Z</time>
      </trkpt>
      <trkpt lat="42.897733" lon="0.104931">
        <ele>1508.5</ele>
        <time>2015-04-21T13:33:41Z</time>
      </trkpt>
      <trkpt lat="42.897814" lon="0.104905">
        <ele>1507.6</ele>
        <time>2015-04-21T13:33:53Z</time>
      </trkpt>
      <trkpt lat="42.897924" lon="0.104867">
        <ele>1508.3</ele>
        <time>2015-04-21T13:34:05Z</time>
      </trkpt>
      <trkpt lat="42.898012" lon="0.104838">
        <ele>1507.0</ele>
        <time>2015-04-21T13:34:14Z</time>
      </trkpt>
      <trkpt lat="42.898100" lon="0.104809">
        <ele>1506.1</ele>
        <time>2015-04-21T13:34:23Z</time>
      </trkpt>
      <trkpt lat="42.898193" lon="0.104759">
        <ele>1503.9</ele>
        <time>2015-04-21T13:34:34Z</time>
      </trkpt>
      <trkpt lat="42.898285" lon="0.104691">
        <ele>1501.9</ele>
        <time>2015-04-21T13:34:44Z</time>
      </trkpt>
      <trkpt lat="42.898379" lon="0.104641">
        <ele>1500.8</ele>
        <time>2015-04-21T13:34:52Z</time>
      </trkpt>
      <trkpt lat="42.898465" lon="0.104605">
        <ele>1499.3</ele>
        <time>2015-04-21T13:35:01Z</time>
      </trkpt>
      <trkpt lat="42.898568" lon="0.104553">
        <ele>1498.1</ele>
        <time>2015-04-21T13:35:10Z</time>
      </trkpt>
      <trkpt lat="42.898663" lon="0.104515">
        <ele>1494.9</ele>
        <time>2015-04-21T13:35:19Z</time>
      </trkpt>
      <trkpt lat="42.898777" lon="0.104468">
        <ele>1488.2</ele>
        <time>2015-04-21T13:35:29Z</time>
      </trkpt>
      <trkpt lat="42.898870" lon="0.104432">
        <ele>1484.1</ele>
        <time>2015-04-21T13:35:37Z</time>
      </trkpt>
      <trkpt lat="42.898977" lon="0.104376">
        <ele>1478.8</ele>
        <time>2015-04-21T13:35:46Z</time>
      </trkpt>
      <trkpt lat="42.899080" lon="0.104338">
        <ele>1475.1</ele>
        <time>2015-04-21T13:35:55Z</time>
      </trkpt>
      <trkpt lat="42.899185" lon="0.104299">
        <ele>1472.0</ele>
        <time>2015-04-21T13:36:04Z</time>
      </trkpt>
      <trkpt lat="42.899304" lon="0.104266">
        <ele>1470.5</ele>
        <time>2015-04-21T13:36:14Z</time>
      </trkpt>
      <trkpt lat="42.899409" lon="0.104248">
        <ele>1468.7</ele>
        <time>2015-04-21T13:36:23Z</time>
      </trkpt>
      <trkpt lat="42.899523" lon="0.104226">
        <ele>1467.9</ele>
        <time>2015-04-21T13:36:32Z</time>
      </trkpt>
      <trkpt lat="42.899622" lon="0.104217">
        <ele>1470.5</ele>
        <time>2015-04-21T13:36:41Z</time>
      </trkpt>
      <trkpt lat="42.899713" lon="0.104240">
        <ele>1477.4</ele>
        <time>2015-04-21T13:36:49Z</time>
      </trkpt>
      <trkpt lat="42.899820" lon="0.104223">
        <ele>1483.9</ele>
        <time>2015-04-21T13:36:57Z</time>
      </trkpt>
      <trkpt lat="42.899919" lon="0.104207">
        <ele>1487.5</ele>
        <time>2015-04-21T13:37:05Z</time>
      </trkpt>
      <trkpt lat="42.900025" lon="0.104179">
        <ele>1491.3</ele>
        <time>2015-04-21T13:37:14Z</time>
      </trkpt>
      <trkpt lat="42.900122" lon="0.104160">
        <ele>1492.7</ele>
        <time>2015-04-21T13:37:23Z</time>
      </trkpt>
      <trkpt lat="42.900218" lon="0.104136">
        <ele>1493.2</ele>
        <time>2015-04-21T13:37:30Z</time>
      </trkpt>
      <trkpt lat="42.900311" lon="0.104114">
        <ele>1492.9</ele>
        <time>2015-04-21T13:37:39Z</time>
      </trkpt>
      <trkpt lat="42.900392" lon="0.104091">
        <ele>1492.8</ele>
        <time>2015-04-21T13:37:47Z</time>
      </trkpt>
      <trkpt lat="42.900472" lon="0.104063">
        <ele>1488.9</ele>
        <time>2015-04-21T13:37:55Z</time>
      </trkpt>
      <trkpt lat="42.900574" lon="0.104041">
        <ele>1484.8</ele>
        <time>2015-04-21T13:38:05Z</time>
      </trkpt>
      <trkpt lat="42.900666" lon="0.104014">
        <ele>1481.5</ele>
        <time>2015-04-21T13:38:14Z</time>
      </trkpt>
      <trkpt lat="42.900762" lon="0.103973">
        <ele>1478.5</ele>
        <time>2015-04-21T13:38:24Z</time>
      </trkpt>
      <trkpt lat="42.900849" lon="0.103939">
        <ele>1477.6</ele>
        <time>2015-04-21T13:38:32Z</time>
      </trkpt>
      <trkpt lat="42.900935" lon="0.103921">
        <ele>1476.8</ele>
        <time>2015-04-21T13:38:41Z</time>
      </trkpt>
      <trkpt lat="42.901043" lon="0.103885">
        <ele>1475.2</ele>
        <time>2015-04-21T13:38:50Z</time>
      </trkpt>
      <trkpt lat="42.901135" lon="0.103868">
        <ele>1475.0</ele>
        <time>2015-04-21T13:38:58Z</time>
      </trkpt>
      <trkpt lat="42.901233" lon="0.103853">
        <ele>1474.9</ele>
        <time>2015-04-21T13:39:07Z</time>
      </trkpt>
      <trkpt lat="42.901330" lon="0.103815">
        <ele>1476.1</ele>
        <time>2015-04-21T13:39:16Z</time>
      </trkpt>
      <trkpt lat="42.901429" lon="0.103786">
        <ele>1475.5</ele>
        <time>2015-04-21T13:39:26Z</time>
      </trkpt>
      <trkpt lat="42.901528" lon="0.103737">
        <ele>1474.5</ele>
        <time>2015-04-21T13:39:35Z</time>
      </trkpt>
      <trkpt lat="42.901624" lon="0.103697">
        <ele>1472.7</ele>
        <time>2015-04-21T13:39:45Z</time>
      </trkpt>
      <trkpt lat="42.901732" lon="0.103640">
        <ele>1471.3</ele>
        <time>2015-04-21T13:39:54Z</time>
      </trkpt>
      <trkpt lat="42.901822" lon="0.103605">
        <ele>1470.4</ele>
        <time>2015-04-21T13:40:02Z</time>
      </trkpt>
      <trkpt lat="42.901905" lon="0.103559">
        <ele>1469.3</ele>
        <time>2015-04-21T13:40:10Z</time>
      </trkpt>
      <trkpt lat="42.901996" lon="0.103533">
        <ele>1468.1</ele>
        <time>2015-04-21T13:40:18Z</time>
      </trkpt>
      <trkpt lat="42.902092" lon="0.103493">
        <ele>1467.8</ele>
        <time>2015-04-21T13:40:26Z</time>
      </trkpt>
      <trkpt lat="42.902175" lon="0.103482">
        <ele>1467.2</ele>
        <time>2015-04-21T13:40:34Z</time>
      </trkpt>
      <trkpt lat="42.902259" lon="0.103455">
        <ele>1465.6</ele>
        <time>2015-04-21T13:40:42Z</time>
      </trkpt>
      <trkpt lat="42.902340" lon="0.103408">
        <ele>1465.8</ele>
        <time>2015-04-21T13:40:51Z</time>
      </trkpt>
      <trkpt lat="42.902431" lon="0.103382">
        <ele>1465.7</ele>
        <time>2015-04-21T13:40:59Z</time>
      </trkpt>
      <trkpt lat="42.902520" lon="0.103370">
        <ele>1466.1</ele>
        <time>2015-04-21T13:41:07Z</time>
      </trkpt>
      <trkpt lat="42.902605" lon="0.103347">
        <ele>1465.5</ele>
        <time>2015-04-21T13:41:15Z</time>
      </trkpt>
      <trkpt lat="42.902711" lon="0.103331">
        <ele>1464.6</ele>
        <time>2015-04-21T13:41:25Z</time>
      </trkpt>
      <trkpt lat="42.902810" lon="0.103293">
        <ele>1462.7</ele>
        <time>2015-04-21T13:41:34Z</time>
      </trkpt>
      <trkpt lat="42.902893" lon="0.103279">
        <ele>1463.3</ele>
        <time>2015-04-21T13:41:42Z</time>
      </trkpt>
      <trkpt lat="42.902983" lon="0.103274">
        <ele>1462.8</ele>
        <time>2015-04-21T13:41:50Z</time>
      </trkpt>
      <trkpt lat="42.903067" lon="0.103266">
        <ele>1460.8</ele>
        <time>2015-04-21T13:41:59Z</time>
      </trkpt>
      <trkpt lat="42.903159" lon="0.103250">
        <ele>1460.2</ele>
        <time>2015-04-21T13:42:08Z</time>
      </trkpt>
      <trkpt lat="42.903252" lon="0.103228">
        <ele>1459.2</ele>
        <time>2015-04-21T13:42:19Z</time>
      </trkpt>
      <trkpt lat="42.903329" lon="0.103132">
        <ele>1459.7</ele>
        <time>2015-04-21T13:42:43Z</time>
      </trkpt>
      <trkpt lat="42.903417" lon="0.103059">
        <ele>1458.5</ele>
        <time>2015-04-21T13:42:51Z</time>
      </trkpt>
      <trkpt lat="42.903493" lon="0.102998">
        <ele>1458.3</ele>
        <time>2015-04-21T13:43:00Z</time>
      </trkpt>
      <trkpt lat="42.903542" lon="0.102895">
        <ele>1457.8</ele>
        <time>2015-04-21T13:43:08Z</time>
      </trkpt>
      <trkpt lat="42.903599" lon="0.102792">
        <ele>1457.7</ele>
        <time>2015-04-21T13:43:17Z</time>
      </trkpt>
    </trkseg>
  </trk>
</gpx>

